Another Hard Day at the Office Weather Stats

 
 
 

High monthly outside Temperature, 22.8 , C
Low monthly outside Temperature, -1.0 , C
High yearly outside Temperature, 30.9 , C
Low yearly outside Temperature, -2.2 , C

Low monthly barometer, 1001.1 , mb
High monthly barometer, 1028.0 , mb
Low yearly barometer, 975.0 , mb
High yearly barometer 1041.1 , mb

High wind speed, 25.0 , mph
Time of High wind speed, 21:37 , mph
High monthly wind speed, 47.0 , mph
High yearly wind speed, 55.0 , mph

 

 




3126
                    Temp     Hi    Low   Out    Dew  Wind  Wind   Wind    Hi    Hi   Wind   Heat    THW                Rain    Heat    Cool    In     In    In     In     In   In Air  Wind  Wind    ISS   Arc.
  Date    Time     Out   Temp   Temp   Hum    Pt. Speed   Dir    Run Speed   Dir  Chill  Index  Index   Bar    Rain  Rate    D-D     D-D    Temp   Hum    Dew   Heat    EMC Density  Samp   Tx   Recept  Int.
---------------------------------------------------------------------------------------------------------------------------------------------------------------------------------------------------------------
20/03/19   0:05    8.6    8.6    8.6    87    6.6   1.0   WSW   0.08   4.0   WSW    8.6    8.7    8.7  1030.3  0.00  0.00   0.034   0.000   22.3    47   10.5   21.7   8.75  .0749    115    1    100.0    5 
20/03/19   0:10    8.6    8.6    8.6    87    6.6   1.0   WSW   0.08   4.0   WSW    8.6    8.7    8.7  1030.3  0.00  0.00   0.034   0.000   22.4    46   10.2   21.7   8.60  .0749    117    1    100.0    5 
20/03/19   0:15    8.6    8.6    8.6    87    6.6   1.0   WSW   0.08   4.0   WSW    8.6    8.7    8.7  1030.2  0.00  0.00   0.034   0.000   22.4    46   10.2   21.7   8.60  .0749    117    1    100.0    5 
20/03/19   0:20    8.6    8.6    8.6    87    6.6   1.0   WSW   0.08   3.0   WSW    8.6    8.7    8.7  1030.3  0.00  0.00   0.034   0.000   22.4    46   10.2   21.8   8.60  .0749    117    1    100.0    5 
20/03/19   0:25    8.6    8.6    8.6    87    6.6   1.0   WSW   0.08   3.0   WSW    8.6    8.7    8.7  1030.2  0.00  0.00   0.034   0.000   22.5    46   10.3   21.9   8.60  .0749    117    1    100.0    5 
20/03/19   0:30    8.6    8.6    8.6    87    6.6   1.0   WSW   0.08   3.0   WSW    8.6    8.7    8.7  1030.2  0.00  0.00   0.034   0.000   22.6    46   10.3   22.0   8.60  .0749    117    1    100.0    5 
20/03/19   0:35    8.7    8.7    8.6    87    6.6   2.0   WSW   0.17   4.0   WSW    8.7    8.7    8.7  1030.2  0.00  0.00   0.034   0.000   22.5    46   10.3   21.9   8.60  .0749    116    1    100.0    5 
20/03/19   0:40    8.7    8.7    8.6    87    6.6   3.0   WSW   0.25   5.0   WSW    8.3    8.7    8.4  1030.3  0.00  0.00   0.034   0.000   22.5    46   10.3   21.9   8.60  .0749    117    1    100.0    5 
20/03/19   0:45    8.7    8.7    8.7    87    6.7   3.0   WSW   0.25   5.0   WSW    8.4    8.8    8.4  1030.4  0.00  0.00   0.033   0.000   22.4    46   10.2   21.7   8.60  .0749    115    1    100.0    5 
20/03/19   0:50    8.7    8.8    8.7    87    6.7   3.0   WSW   0.25   4.0   WSW    8.4    8.8    8.4  1030.4  0.00  0.00   0.033   0.000   22.3    46   10.1   21.6   8.61  .0750    116    1    100.0    5 
20/03/19   0:55    8.7    8.8    8.7    87    6.7   2.0   WSW   0.17   4.0   WSW    8.7    8.8    8.8  1030.3  0.00  0.00   0.033   0.000   22.2    46   10.0   21.5   8.61  .0750    116    1    100.0    5 
20/03/19   1:00    8.7    8.8    8.7    87    6.7   3.0   WSW   0.25   4.0   WSW    8.4    8.8    8.4  1030.4  0.00  0.00   0.033   0.000   22.2    46   10.0   21.5   8.61  .0750    115    1    100.0    5 
20/03/19   1:05    8.7    8.7    8.7    87    6.7   3.0   WSW   0.25   5.0   WSW    8.4    8.8    8.4  1030.4  0.00  0.00   0.033   0.000   22.2    46   10.0   21.4   8.61  .0750    117    1    100.0    5 
20/03/19   1:10    8.8    8.8    8.7    87    6.7   5.0   WSW   0.42   7.0   WSW    7.6    8.8    7.7  1030.4  0.00  0.00   0.033   0.000   22.2    46   10.0   21.4   8.61  .0750    116    1    100.0    5 
20/03/19   1:15    8.8    8.8    8.8    87    6.7   4.0   WSW   0.33   6.0   WSW    8.0    8.8    8.1  1030.4  0.00  0.00   0.033   0.000   22.1    46    9.9   21.3   8.61  .0750    116    1    100.0    5 
20/03/19   1:20    8.8    8.8    8.8    87    6.8   5.0   WSW   0.42   7.0   WSW    7.7    8.9    7.7  1030.3  0.00  0.00   0.033   0.000   21.9    47   10.1   21.1   8.75  .0751    116    1    100.0    5 
20/03/19   1:25    8.8    8.8    8.8    87    6.8   5.0   WSW   0.42   7.0   WSW    7.7    8.9    7.7  1030.3  0.00  0.00   0.033   0.000   21.9    47   10.1   21.1   8.75  .0751    117    1    100.0    5 
20/03/19   1:30    8.8    8.8    8.8    87    6.8   5.0   WSW   0.42   7.0   WSW    7.7    8.9    7.7  1030.4  0.00  0.00   0.033   0.000   21.8    47   10.0   21.0   8.75  .0751    116    1    100.0    5 
20/03/19   1:35    8.8    8.8    8.8    87    6.8   5.0   WSW   0.42   7.0   WSW    7.7    8.9    7.7  1030.3  0.00  0.00   0.033   0.000   21.8    47   10.0   20.9   8.75  .0751    116    1    100.0    5 
20/03/19   1:40    8.8    8.8    8.8    87    6.8   6.0   WSW   0.50   8.0   WSW    7.3    8.9    7.4  1030.3  0.00  0.00   0.033   0.000   21.7    47    9.9   20.8   8.75  .0751    117    1    100.0    5 
20/03/19   1:45    8.8    8.9    8.8    87    6.8   5.0   WSW   0.42   6.0   WSW    7.7    8.9    7.7  1030.3  0.00  0.00   0.033   0.000   21.6    47    9.8   20.7   8.75  .0752    116    1    100.0    5 
20/03/19   1:50    8.8    8.8    8.8    87    6.8   6.0   WSW   0.50   7.0   WSW    7.3    8.9    7.4  1030.3  0.00  0.00   0.033   0.000   21.5    47    9.7   20.5   8.75  .0752    116    1    100.0    5 
20/03/19   1:55    8.8    8.9    8.8    87    6.8   7.0   WSW   0.58   8.0   WSW    7.1    8.9    7.1  1030.3  0.00  0.00   0.033   0.000   21.3    48    9.9   20.3   8.86  .0752    116    1    100.0    5 
20/03/19   2:00    8.8    8.8    8.8    87    6.8   6.0   WSW   0.50   8.0   WSW    7.3    8.9    7.4  1030.3  0.00  0.00   0.033   0.000   21.1    48    9.7   20.1   8.85  .0753    117    1    100.0    5 
20/03/19   2:05    8.8    8.8    8.8    87    6.8   5.0   WSW   0.42   7.0   WSW    7.7    8.9    7.7  1030.3  0.00  0.00   0.033   0.000   21.0    49    9.9   20.1   9.05  .0753    116    1    100.0    5 
20/03/19   2:10    8.8    8.8    8.8    87    6.8   5.0   WSW   0.42   7.0   WSW    7.7    8.9    7.7  1030.3  0.00  0.00   0.033   0.000   20.9    49    9.8   20.0   9.06  .0753    116    1    100.0    5 
20/03/19   2:15    8.8    8.8    8.8    87    6.8   5.0   WSW   0.42   6.0   WSW    7.7    8.9    7.7  1030.4  0.00  0.00   0.033   0.000   20.9    49    9.8   20.0   9.06  .0753    117    1    100.0    5 
20/03/19   2:20    8.8    8.8    8.8    87    6.8   5.0   WSW   0.42   6.0   WSW    7.7    8.9    7.7  1030.4  0.00  0.00   0.033   0.000   20.9    49    9.8   20.0   9.06  .0753    116    1    100.0    5 
20/03/19   2:25    8.8    8.8    8.8    87    6.8   5.0   WSW   0.42   6.0   WSW    7.7    8.9    7.7  1030.3  0.00  0.00   0.033   0.000   20.9    49    9.8   20.0   9.06  .0753    117    1    100.0    5 
20/03/19   2:30    8.8    8.8    8.8    87    6.8   4.0   WSW   0.33   5.0   WSW    8.1    8.9    8.1  1030.3  0.00  0.00   0.033   0.000   21.1    49    9.9   20.1   9.05  .0753    117    1    100.0    5 
20/03/19   2:35    8.8    8.8    8.8    87    6.8   4.0   WSW   0.33   5.0   WSW    8.1    8.9    8.1  1030.3  0.00  0.00   0.033   0.000   21.2    49   10.0   20.2   9.05  .0753    116    1    100.0    5 
20/03/19   2:40    8.9    8.9    8.8    87    6.8   4.0   WSW   0.33   6.0   WSW    8.1    8.9    8.2  1030.3  0.00  0.00   0.033   0.000   21.3    49   10.1   20.3   9.05  .0752    117    1    100.0    5 
20/03/19   2:45    8.9    8.9    8.9    87    6.8   5.0   WSW   0.42   6.0   WSW    7.7    8.9    7.8  1030.2  0.00  0.00   0.033   0.000   21.4    48    9.9   20.4   8.86  .0752    117    1    100.0    5 
20/03/19   2:50    8.9    8.9    8.9    87    6.8   4.0   WSW   0.33   6.0   WSW    8.1    8.9    8.2  1030.3  0.00  0.00   0.033   0.000   21.5    48   10.0   20.6   8.86  .0752    117    1    100.0    5 
20/03/19   2:55    8.9    8.9    8.9    87    6.8   3.0   WSW   0.25   5.0   WSW    8.6    8.9    8.6  1030.3  0.00  0.00   0.033   0.000   21.7    48   10.2   20.8   8.87  .0751    116    1    100.0    5 
20/03/19   3:00    8.9    8.9    8.9    87    6.8   2.0   WSW   0.17   4.0   WSW    8.9    8.9    8.9  1030.3  0.00  0.00   0.033   0.000   21.8    48   10.3   20.9   8.87  .0751    116    1    100.0    5 
20/03/19   3:05    8.9    8.9    8.9    87    6.8   3.0   WSW   0.25   4.0   WSW    8.6    8.9    8.6  1030.3  0.00  0.00   0.033   0.000   21.9    48   10.4   21.1   8.88  .0751    117    1    100.0    5 
20/03/19   3:10    8.9    8.9    8.9    87    6.9   3.0   WSW   0.25   5.0   WSW    8.6    9.0    8.7  1030.2  0.00  0.00   0.033   0.000   22.0    47   10.2   21.2   8.75  .0750    117    1    100.0    5 
20/03/19   3:15    8.9    8.9    8.9    87    6.9   3.0   WSW   0.25   5.0   WSW    8.6    9.0    8.7  1030.2  0.00  0.00   0.033   0.000   22.1    47   10.2   21.3   8.75  .0750    115    1    100.0    5 
20/03/19   3:20    8.9    8.9    8.9    88    7.0   3.0   WSW   0.25   5.0   WSW    8.6    8.9    8.6  1030.2  0.00  0.00   0.033   0.000   22.1    47   10.2   21.3   8.75  .0750    116    1    100.0    5 
20/03/19   3:25    8.9    8.9    8.9    88    7.0   2.0   WSW   0.17   4.0   WSW    8.9    8.9    8.9  1030.2  0.00  0.00   0.033   0.000   22.1    47   10.2   21.3   8.75  .0750    117    1    100.0    5 
20/03/19   3:30    8.9    8.9    8.9    87    6.9   2.0   WSW   0.17   3.0   WSW    8.9    9.0    9.0  1030.2  0.00  0.00   0.033   0.000   22.1    47   10.3   21.4   8.75  .0750    116    1    100.0    5 
20/03/19   3:35    8.9    8.9    8.9    88    7.0   2.0   WSW   0.17   5.0   WSW    8.9    8.9    8.9  1030.2  0.00  0.00   0.033   0.000   22.2    47   10.4   21.6   8.75  .0750    118    1    100.0    5 
20/03/19   3:40    8.9    8.9    8.9    87    6.8   1.0   WSW   0.08   4.0   WSW    8.9    8.9    8.9  1030.1  0.00  0.00   0.033   0.000   22.3    47   10.4   21.6   8.75  .0749    116    1    100.0    5 
20/03/19   3:45    8.9    8.9    8.9    88    7.1   2.0   WSW   0.17   4.0   WSW    8.9    9.0    9.0  1030.1  0.00  0.00   0.033   0.000   22.3    46   10.1   21.7   8.61  .0749    116    1    100.0    5 
20/03/19   3:50    8.9    8.9    8.9    88    7.1   2.0   WSW   0.17   4.0   WSW    8.9    9.0    9.0  1030.1  0.00  0.00   0.033   0.000   22.4    46   10.2   21.7   8.60  .0749    116    1    100.0    5 
20/03/19   3:55    8.9    8.9    8.9    88    7.1   2.0   WSW   0.17   4.0   WSW    8.9    9.0    9.0  1030.0  0.00  0.00   0.033   0.000   22.4    46   10.2   21.7   8.60  .0749    116    1    100.0    5 
20/03/19   4:00    8.9    8.9    8.9    88    7.1   1.0   WSW   0.08   2.0   WSW    8.9    9.0    9.0  1030.1  0.00  0.00   0.033   0.000   22.5    46   10.3   21.9   8.60  .0749    115    1    100.0    5 
20/03/19   4:05    8.9    8.9    8.9    88    7.1   0.0   WSW   0.00   2.0   WSW    8.9    9.0    9.0  1030.1  0.00  0.00   0.033   0.000   22.6    46   10.4   22.1   8.60  .0749    117    1    100.0    5 
20/03/19   4:10    8.9    8.9    8.9    88    7.1   0.0   WSW   0.00   2.0   WSW    8.9    9.0    9.0  1030.2  0.00  0.00   0.033   0.000   22.7    46   10.5   22.2   8.59  .0748    115    1    100.0    5 
20/03/19   4:15    8.9    8.9    8.9    88    7.1   0.0   WSW   0.00   1.0   WSW    8.9    9.0    9.0  1030.2  0.00  0.00   0.033   0.000   22.8    46   10.6   22.3   8.59  .0748    117    1    100.0    5 
20/03/19   4:20    8.9    8.9    8.9    88    7.1   0.0   ---   0.00   0.0   ---    8.9    9.0    9.0  1030.3  0.00  0.00   0.033   0.000   22.8    46   10.6   22.4   8.59  .0748    117    1    100.0    5 
20/03/19   4:25    8.9    8.9    8.9    88    7.1   0.0   WSW   0.00   2.0   WSW    8.9    9.0    9.0  1030.3  0.00  0.00   0.033   0.000   22.9    45   10.4   22.5   8.45  .0748    117    1    100.0    5 
20/03/19   4:30    8.9    8.9    8.9    88    7.1   0.0   WSW   0.00   1.0   WSW    8.9    9.0    9.0  1030.3  0.00  0.00   0.033   0.000   23.0    45   10.4   22.6   8.45  .0748    117    1    100.0    5 
20/03/19   4:35    8.9    8.9    8.9    88    7.1   0.0   WSW   0.00   2.0   WSW    8.9    9.0    9.0  1030.4  0.00  0.00   0.033   0.000   23.1    45   10.5   22.7   8.45  .0748    117    1    100.0    5 
20/03/19   4:40    8.9    9.0    8.9    88    7.1   1.0   WSW   0.08   3.0   WSW    8.9    9.0    9.0  1030.4  0.00  0.00   0.033   0.000   23.1    45   10.5   22.7   8.45  .0747    118    1    100.0    5 
20/03/19   4:45    8.9    9.0    8.9    88    7.1   1.0   WSW   0.08   3.0   WSW    8.9    9.0    9.0  1030.4  0.00  0.00   0.033   0.000   23.1    45   10.5   22.7   8.45  .0747    117    1    100.0    5 
20/03/19   4:50    8.9    8.9    8.9    88    7.1   0.0   WSW   0.00   2.0   WSW    8.9    9.0    9.0  1030.4  0.00  0.00   0.033   0.000   23.1    45   10.5   22.7   8.45  .0747    117    1    100.0    5 
20/03/19   4:55    8.9    8.9    8.9    88    7.1   0.0   WSW   0.00   2.0   WSW    8.9    9.0    9.0  1030.3  0.00  0.00   0.033   0.000   23.2    45   10.6   22.8   8.45  .0747    117    1    100.0    5 
20/03/19   5:00    8.9    8.9    8.9    88    7.1   0.0   WSW   0.00   2.0   WSW    8.9    9.0    9.0  1030.3  0.00  0.00   0.033   0.000   23.2    46   11.0   22.9   8.57  .0747    117    1    100.0    5 
20/03/19   5:05    8.9    8.9    8.9    88    7.1   1.0   WSW   0.08   3.0   WSW    8.9    9.0    9.0  1030.4  0.00  0.00   0.033   0.000   23.3    45   10.7   22.9   8.45  .0747    117    1    100.0    5 
20/03/19   5:10    8.9    8.9    8.9    88    7.0   1.0   WSW   0.08   2.0   WSW    8.9    8.9    8.9  1030.5  0.00  0.00   0.033   0.000   23.3    45   10.7   23.0   8.45  .0747    117    1    100.0    5 
20/03/19   5:15    8.9    8.9    8.9    88    7.0   1.0   WSW   0.08   2.0   WSW    8.9    8.9    8.9  1030.5  0.00  0.00   0.033   0.000   23.3    45   10.7   23.0   8.45  .0747    117    1    100.0    5 
20/03/19   5:20    8.9    8.9    8.9    88    7.1   0.0   WSW   0.00   2.0   WSW    8.9    9.0    9.0  1030.7  0.00  0.00   0.033   0.000   23.4    45   10.8   23.1   8.45  .0747    117    1    100.0    5 
20/03/19   5:25    8.9    8.9    8.9    88    7.1   0.0   ---   0.00   0.0   ---    8.9    9.0    9.0  1030.7  0.00  0.00   0.033   0.000   23.4    44   10.5   23.1   8.27  .0747    116    1    100.0    5 
20/03/19   5:30    8.9    8.9    8.9    88    7.1   0.0   ---   0.00   0.0   ---    8.9    9.0    9.0  1030.8  0.00  0.00   0.033   0.000   23.5    44   10.5   23.2   8.26  .0747    116    1    100.0    5 
20/03/19   5:35    8.9    9.0    8.9    88    7.1   0.0   ---   0.00   0.0   ---    8.9    9.0    9.0  1030.9  0.00  0.00   0.033   0.000   23.6    44   10.6   23.2   8.26  .0747    117    1    100.0    5 
20/03/19   5:40    8.9    9.0    8.9    88    7.1   0.0   ---   0.00   0.0   ---    8.9    9.0    9.0  1030.8  0.00  0.00   0.033   0.000   23.6    44   10.6   23.2   8.26  .0747    117    1    100.0    5 
20/03/19   5:45    8.9    9.0    8.9    88    7.1   0.0   ---   0.00   0.0   ---    8.9    9.0    9.0  1030.8  0.00  0.00   0.033   0.000   23.6    44   10.6   23.3   8.26  .0746    117    1    100.0    5 
20/03/19   5:50    8.9    9.0    8.9    88    7.1   0.0   WSW   0.00   1.0   WSW    8.9    9.0    9.0  1030.8  0.00  0.00   0.033   0.000   23.7    44   10.7   23.4   8.26  .0746    115    1    100.0    5 
20/03/19   5:55    8.9    9.0    8.9    88    7.1   0.0   ---   0.00   0.0   ---    8.9    9.0    9.0  1030.9  0.00  0.00   0.033   0.000   23.7    45   11.1   23.5   8.45  .0746    117    1    100.0    5 
20/03/19   6:00    8.9    8.9    8.9    88    7.1   0.0   ---   0.00   0.0   ---    8.9    9.0    9.0  1030.9  0.00  0.00   0.033   0.000   23.8    45   11.1   23.6   8.45  .0746    117    1    100.0    5 
20/03/19   6:05    8.9    9.0    8.9    88    7.1   0.0   ---   0.00   0.0   ---    8.9    9.0    9.0  1031.0  0.00  0.00   0.033   0.000   23.8    44   10.8   23.6   8.25  .0746    117    1    100.0    5 
20/03/19   6:10    9.0    9.0    8.9    88    7.1   0.0   ---   0.00   0.0   ---    9.0    9.1    9.1  1031.1  0.00  0.00   0.032   0.000   23.8    44   10.8   23.6   8.25  .0746    117    1    100.0    5 
20/03/19   6:15    9.0    9.0    9.0    88    7.1   0.0   ---   0.00   0.0   ---    9.0    9.1    9.1  1031.1  0.00  0.00   0.032   0.000   23.9    44   10.9   23.7   8.25  .0746    117    1    100.0    5 
20/03/19   6:20    9.1    9.1    9.0    88    7.2   0.0   ---   0.00   0.0   ---    9.1    9.1    9.1  1031.2  0.00  0.00   0.032   0.000   23.9    44   10.9   23.7   8.25  .0746    117    1    100.0    5 
20/03/19   6:25    9.0    9.1    9.0    88    7.1   0.0   ---   0.00   0.0   ---    9.0    9.1    9.1  1031.2  0.00  0.00   0.032   0.000   23.9    43   10.6   23.7   8.05  .0746    115    1    100.0    5 
20/03/19   6:30    9.0    9.0    9.0    88    7.1   0.0   ---   0.00   0.0   ---    9.0    9.1    9.1  1031.2  0.00  0.00   0.032   0.000   23.9    43   10.6   23.7   8.05  .0746    117    1    100.0    5 
20/03/19   6:35    9.0    9.0    9.0    88    7.1   0.0   WSW   0.00   1.0   WSW    9.0    9.1    9.1  1031.3  0.00  0.00   0.032   0.000   24.0    44   11.0   23.8   8.25  .0746    117    1    100.0    5 
20/03/19   6:40    9.0    9.0    9.0    88    7.1   0.0   WSW   0.00   2.0   WSW    9.0    9.1    9.1  1031.2  0.00  0.00   0.032   0.000   24.0    43   10.6   23.7   8.05  .0746    116    1    100.0    5 
20/03/19   6:45    9.0    9.0    9.0    88    7.1   1.0   WSW   0.08   2.0   WSW    9.0    9.1    9.1  1031.3  0.00  0.00   0.032   0.000   24.0    43   10.6   23.7   8.05  .0746    118    1    100.0    5 
20/03/19   6:50    9.0    9.0    9.0    88    7.1   1.0   WSW   0.08   3.0   WSW    9.0    9.1    9.1  1031.3  0.00  0.00   0.032   0.000   24.0    43   10.6   23.7   8.05  .0746    117    1    100.0    5 
20/03/19   6:55    9.0    9.0    9.0    88    7.1   3.0   WSW   0.25   5.0   WSW    8.7    9.1    8.7  1031.3  0.00  0.00   0.032   0.000   24.0    43   10.6   23.7   8.05  .0746    117    1    100.0    5 
20/03/19   7:00    9.0    9.1    9.0    88    7.1   5.0   WSW   0.42   6.0   WSW    7.8    9.1    7.9  1031.3  0.00  0.00   0.032   0.000   24.0    43   10.6   23.7   8.05  .0746    117    1    100.0    5 
20/03/19   7:05    9.1    9.1    9.0    88    7.2   3.0   WSW   0.25   5.0   WSW    8.7    9.1    8.8  1031.4  0.00  0.00   0.032   0.000   24.0    43   10.6   23.7   8.05  .0746    116    1    100.0    5 
20/03/19   7:10    9.0    9.0    9.0    88    7.1   4.0   WSW   0.33   7.0   WSW    8.2    9.1    8.3  1031.5  0.00  0.00   0.032   0.000   23.8    43   10.5   23.6   8.05  .0746    115    1    100.0    5 
20/03/19   7:15    9.0    9.1    9.0    88    7.1   4.0   WSW   0.33   5.0   WSW    8.2    9.1    8.3  1031.6  0.00  0.00   0.032   0.000   23.7    44   10.7   23.4   8.26  .0747    115    1    100.0    5 
20/03/19   7:20    9.1    9.1    9.1    88    7.2   4.0   WSW   0.33   6.0   WSW    8.3    9.1    8.3  1031.5  0.00  0.00   0.032   0.000   23.5    44   10.5   23.2   8.26  .0747    116    1    100.0    5 
20/03/19   7:25    9.1    9.1    9.1    88    7.2   4.0   WSW   0.33   6.0   WSW    8.3    9.1    8.3  1031.6  0.00  0.00   0.032   0.000   23.3    45   10.7   23.0   8.45  .0748    115    1    100.0    5 
20/03/19   7:30    9.1    9.1    9.1    88    7.2   4.0   WSW   0.33   7.0   WSW    8.3    9.2    8.4  1031.6  0.00  0.00   0.032   0.000   23.3    45   10.7   22.9   8.45  .0748    116    1    100.0    5 
20/03/19   7:35    9.1    9.1    9.1    88    7.2   5.0   WSW   0.42   8.0   WSW    7.9    9.2    8.1  1031.7  0.00  0.00   0.032   0.000   23.2    45   10.6   22.8   8.45  .0748    116    1    100.0    5 
20/03/19   7:40    9.2    9.2    9.1    88    7.3   5.0   WSW   0.42   8.0   WSW    8.1    9.3    8.2  1031.7  0.00  0.00   0.032   0.000   22.9    45   10.4   22.5   8.45  .0749    117    1    100.0    5 
20/03/19   7:45    9.2    9.2    9.2    88    7.3   5.0   WSW   0.42   7.0   WSW    8.1    9.3    8.2  1031.7  0.00  0.00   0.032   0.000   22.8    46   10.6   22.3   8.59  .0749    117    1    100.0    5 
20/03/19   7:50    9.3    9.3    9.2    88    7.4   4.0   WSW   0.33   6.0   WSW    8.6    9.4    8.7  1031.7  0.00  0.00   0.031   0.000   22.7    46   10.5   22.2   8.59  .0750    118    1    100.0    5 
20/03/19   7:55    9.3    9.3    9.3    88    7.4   4.0   WSW   0.33   8.0   WSW    8.6    9.4    8.7  1031.9  0.00  0.00   0.031   0.000   22.6    46   10.4   22.1   8.60  .0750    115    1    100.0    5 
20/03/19   8:00    9.3    9.3    9.3    88    7.4   5.0   WSW   0.42   8.0   WSW    8.2    9.4    8.3  1032.0  0.00  0.00   0.031   0.000   22.7    46   10.5   22.2   8.59  .0750    116    1    100.0    5 
20/03/19   8:05    9.3    9.3    9.3    88    7.4   6.0   WSW   0.50   9.0   WSW    7.9    9.4    8.1  1032.0  0.00  0.00   0.031   0.000   22.7    46   10.5   22.2   8.59  .0750    117    1    100.0    5 
20/03/19   8:10    9.3    9.3    9.3    88    7.4   6.0   WSW   0.50   9.0   WSW    7.9    9.4    8.1  1032.1  0.00  0.00   0.031   0.000   22.5    46   10.3   21.9   8.60  .0750    117    1    100.0    5 
20/03/19   8:15    9.4    9.4    9.3    88    7.5   5.0   WSW   0.42   9.0   WSW    8.3    9.5    8.4  1032.2  0.00  0.00   0.031   0.000   22.3    47   10.4   21.6   8.75  .0751    116    1    100.0    5 
20/03/19   8:20    9.4    9.4    9.4    88    7.6   5.0   WSW   0.42   9.0   WSW    8.3    9.6    8.4  1032.3  0.00  0.00   0.031   0.000   22.2    47   10.3   21.4   8.75  .0751    115    1    100.0    5 
20/03/19   8:25    9.6    9.6    9.4    88    7.7   5.0   WSW   0.42   8.0   WSW    8.4    9.7    8.6  1032.4  0.00  0.00   0.030   0.000   22.0    47   10.2   21.2   8.75  .0752    117    1    100.0    5 
20/03/19   8:30    9.5    9.6    9.5    88    7.6   6.0   WSW   0.50   8.0   WSW    8.1    9.6    8.2  1032.4  0.00  0.00   0.031   0.000   21.9    48   10.4   21.1   8.88  .0752    116    1    100.0    5 
20/03/19   8:35    9.4    9.5    9.4    88    7.6   5.0   WSW   0.42   8.0   WSW    8.3    9.6    8.4  1032.5  0.00  0.00   0.031   0.000   21.8    48   10.3   20.9   8.87  .0753    116    1    100.0    5 
20/03/19   8:40    9.4    9.4    9.4    88    7.6   6.0   WSW   0.50   9.0   WSW    8.1    9.6    8.2  1032.5  0.00  0.00   0.031   0.000   21.8    48   10.3   21.1   8.88  .0752    117    1    100.0    5 
20/03/19   8:45    9.4    9.5    9.4    88    7.6   4.0   WSW   0.33   7.0   WSW    8.7    9.6    8.8  1032.4  0.00  0.00   0.031   0.000   22.0    48   10.5   21.3   8.88  .0752    117    1    100.0    5 
20/03/19   8:50    9.5    9.5    9.4    88    7.6   4.0   WSW   0.33   7.0   WSW    8.8    9.6    8.9  1032.4  0.00  0.00   0.031   0.000   22.3    48   10.7   21.7   8.89  .0751    116    1    100.0    5 
20/03/19   8:55    9.4    9.5    9.4    88    7.6   6.0   WSW   0.50   7.0   WSW    8.1    9.6    8.2  1032.3  0.00  0.00   0.031   0.000   22.5    47   10.6   21.9   8.75  .0750    118    1    100.0    5 
20/03/19   9:00    9.4    9.4    9.4    88    7.6   5.0   WSW   0.42   8.0   WSW    8.3    9.6    8.4  1032.3  0.00  0.00   0.031   0.000   22.7    47   10.8   22.3   8.75  .0750    117    1    100.0    5 
20/03/19   9:05    9.5    9.5    9.4    88    7.6   5.0   WSW   0.42   7.0   WSW    8.4    9.6    8.5  1032.3  0.00  0.00   0.031   0.000   22.9    47   11.0   22.5   8.75  .0749    116    1    100.0    5 
20/03/19   9:10    9.6    9.6    9.5    88    7.7   5.0   WSW   0.42   8.0   WSW    8.6    9.7    8.7  1032.4  0.00  0.00   0.030   0.000   23.1    46   10.8   22.7   8.58  .0749    117    1    100.0    5 
20/03/19   9:15    9.7    9.7    9.6    88    7.8   5.0   WSW   0.42   8.0   WSW    8.6    9.8    8.7  1032.4  0.00  0.00   0.030   0.000   23.1    46   10.9   22.7   8.58  .0749    115    1    100.0    5 
20/03/19   9:20    9.7    9.7    9.6    87    7.6   6.0   WSW   0.50   8.0   WSW    8.3    9.8    8.4  1032.4  0.00  0.00   0.030   0.000   23.2    46   11.0   22.9   8.57  .0748    116    1    100.0    5 
20/03/19   9:25    9.7    9.8    9.7    88    7.8   5.0   WSW   0.42   8.0   WSW    8.7    9.8    8.8  1032.5  0.00  0.00   0.030   0.000   23.3    46   11.1   23.1   8.57  .0748    117    1    100.0    5 
20/03/19   9:30    9.8    9.8    9.7    88    7.9   6.0   WSW   0.50   9.0   WSW    8.5    9.9    8.6  1032.5  0.00  0.00   0.030   0.000   23.4    46   11.2   23.2   8.57  .0748    117    1    100.0    5 
20/03/19   9:35    9.7    9.8    9.7    88    7.8   7.0     W   0.58   9.0     W    8.1    9.8    8.2  1032.5  0.00  0.00   0.030   0.000   23.5    45   10.9   23.2   8.45  .0748    116    1    100.0    5 
20/03/19   9:40    9.6    9.7    9.6    87    7.5   7.0     W   0.58   9.0     W    7.9    9.7    8.0  1032.4  0.00  0.00   0.030   0.000   23.6    45   10.9   23.3   8.45  .0748    116    1    100.0    5 
20/03/19   9:45    9.6    9.6    9.6    88    7.7   7.0     W   0.58   8.0     W    8.0    9.7    8.1  1032.5  0.00  0.00   0.030   0.000   23.6    45   11.0   23.4   8.45  .0747    117    1    100.0    5 
20/03/19   9:50    9.6    9.6    9.6    87    7.5   7.0     W   0.58   8.0     W    7.9    9.7    8.0  1032.5  0.00  0.00   0.030   0.000   23.7    45   11.0   23.4   8.45  .0747    116    1    100.0    5 
20/03/19   9:55    9.7    9.7    9.6    87    7.7   5.0     W   0.42   9.0     W    8.7    9.8    8.8  1032.6  0.00  0.00   0.030   0.000   23.7    45   11.1   23.5   8.45  .0747    116    1    100.0    5 
20/03/19  10:00    9.8    9.8    9.7    87    7.8   5.0     W   0.42   8.0     W    8.8    9.9    8.9  1032.6  0.00  0.00   0.030   0.000   23.8    45   11.1   23.6   8.45  .0747    118    1    100.0    5 
20/03/19  10:05    9.9    9.9    9.8    87    7.9   5.0     W   0.42   7.0     W    8.9   10.1    9.1  1032.6  0.00  0.00   0.029   0.000   23.8    45   11.1   23.6   8.45  .0747    117    1    100.0    5 
20/03/19  10:10    9.9   10.0    9.9    87    7.9   6.0     W   0.50   8.0     W    8.7   10.1    8.8  1032.7  0.00  0.00   0.029   0.000   23.8    45   11.2   23.7   8.45  .0747    115    1    100.0    5 
20/03/19  10:15   10.2   10.2    9.9    87    8.2   6.0     W   0.50   9.0     W    9.0   10.3    9.1  1032.8  0.00  0.00   0.028   0.000   23.9    45   11.2   23.7   8.45  .0747    117    1    100.0    5 
20/03/19  10:20   10.6   10.6   10.2    87    8.5   5.0     W   0.42  10.0     W    9.7   10.6    9.7  1032.8  0.00  0.00   0.027   0.000   23.9    45   11.3   23.8   8.45  .0747    116    1    100.0    5 
20/03/19  10:25   10.5   10.6   10.5    87    8.4   6.0     W   0.50  10.0   WSW    9.3   10.6    9.4  1032.9  0.00  0.00   0.027   0.000   24.0    45   11.3   23.8   8.45  .0747    117    1    100.0    5 
20/03/19  10:30   10.4   10.5   10.3    87    8.4   6.0     W   0.50   9.0     W    9.3   10.5    9.3  1032.9  0.00  0.00   0.027   0.000   24.1    45   11.4   23.9   8.44  .0746    117    1    100.0    5 
20/03/19  10:35   10.5   10.5   10.4    87    8.4   7.0     W   0.58  10.0     W    9.1   10.6    9.1  1032.9  0.00  0.00   0.027   0.000   24.1    45   11.4   23.9   8.44  .0746    116    1    100.0    5 
20/03/19  10:40   10.3   10.6   10.3    87    8.3   7.0     W   0.58  10.0     W    8.8   10.4    8.9  1032.9  0.00  0.00   0.028   0.000   24.2    44   11.1   23.9   8.24  .0746    117    1    100.0    5 
20/03/19  10:45   10.3   10.4   10.3    87    8.2   7.0     W   0.58   9.0     W    8.8   10.3    8.8  1033.0  0.00  0.00   0.028   0.000   24.2    44   11.2   23.9   8.24  .0746    117    1    100.0    5 
20/03/19  10:50   10.4   10.4   10.3    87    8.4   5.0     W   0.42   7.0     W    9.6   10.5    9.6  1033.0  0.00  0.00   0.027   0.000   24.3    44   11.2   24.0   8.24  .0746    117    1    100.0    5 
20/03/19  10:55   10.3   10.4   10.3    87    8.2   6.0     W   0.50   8.0     W    9.1   10.3    9.1  1032.9  0.00  0.00   0.028   0.000   24.3    45   11.6   24.1   8.43  .0745    116    1    100.0    5 
20/03/19  11:00   10.3   10.4   10.3    87    8.3   6.0     W   0.50   8.0     W    9.1   10.4    9.2  1033.0  0.00  0.00   0.028   0.000   24.3    45   11.6   24.1   8.43  .0746    118    1    100.0    5 
20/03/19  11:05   10.4   10.4   10.3    87    8.3   6.0     W   0.50   8.0     W    9.2   10.4    9.2  1033.0  0.00  0.00   0.028   0.000   24.4    45   11.7   24.2   8.43  .0745    117    1    100.0    5 
20/03/19  11:10   10.4   10.4   10.4    87    8.3   6.0     W   0.50   7.0     W    9.2   10.4    9.2  1032.9  0.00  0.00   0.028   0.000   24.5    45   11.8   24.3   8.43  .0745    117    1    100.0    5 
20/03/19  11:15   10.3   10.4   10.3    87    8.3   6.0     W   0.50   8.0     W    9.1   10.4    9.2  1032.8  0.00  0.00   0.028   0.000   24.6    45   11.8   24.3   8.43  .0745    116    1    100.0    5 
20/03/19  11:20   10.4   10.4   10.3    86    8.2   6.0     W   0.50   8.0     W    9.3   10.5    9.3  1032.8  0.00  0.00   0.027   0.000   24.6    45   11.9   24.4   8.42  .0745    117    1    100.0    5 
20/03/19  11:25   10.5   10.6   10.4    86    8.3   6.0     W   0.50   8.0     W    9.3   10.6    9.4  1032.8  0.00  0.00   0.027   0.000   24.7    45   11.9   24.4   8.42  .0744    117    1    100.0    5 
20/03/19  11:30   10.4   10.5   10.4    86    8.1   7.0     W   0.58   9.0     W    8.9   10.4    8.9  1032.9  0.00  0.00   0.028   0.000   24.8    45   12.0   24.5   8.42  .0744    117    1    100.0    5 
20/03/19  11:35   10.4   10.4   10.3    86    8.1   7.0     W   0.58  10.0     W    8.9   10.4    8.9  1032.8  0.00  0.00   0.028   0.000   24.8    45   12.0   24.5   8.42  .0744    117    1    100.0    5 
20/03/19  11:40   10.4   10.4   10.4    86    8.1   8.0     W   0.67   9.0     W    8.5   10.4    8.6  1032.8  0.00  0.00   0.028   0.000   24.8    45   12.1   24.6   8.42  .0744    117    1    100.0    5 
20/03/19  11:45   10.3   10.4   10.3    87    8.3   7.0   WSW   0.58   9.0   WSW    8.8   10.4    8.9  1032.8  0.00  0.00   0.028   0.000   24.9    45   12.1   24.6   8.41  .0744    117    1    100.0    5 
20/03/19  11:50   10.3   10.3   10.3    87    8.2   7.0   WSW   0.58   9.0   WSW    8.8   10.3    8.8  1032.8  0.00  0.00   0.028   0.000   24.9    45   12.2   24.7   8.41  .0743    117    1    100.0    5 
20/03/19  11:55   10.4   10.4   10.3    86    8.1   7.0   WSW   0.58   9.0   WSW    8.9   10.4    8.9  1032.8  0.00  0.00   0.028   0.000   25.0    45   12.2   24.7   8.41  .0743    117    1    100.0    5 
20/03/19  12:00   10.4   10.4   10.4    86    8.1   7.0   WSW   0.58   8.0   WSW    8.9   10.4    8.9  1032.8  0.00  0.00   0.028   0.000   25.1    44   11.9   24.7   8.21  .0743    116    1    100.0    5 
20/03/19  12:05   10.3   10.4   10.3    87    8.3   6.0   WSW   0.50   8.0   WSW    9.1   10.4    9.2  1032.8  0.00  0.00   0.028   0.000   25.1    44   12.0   24.8   8.21  .0743    118    1    100.0    5 
20/03/19  12:10   10.6   10.6   10.3    86    8.3   7.0   WSW   0.58   9.0   WSW    9.1   10.6    9.1  1032.8  0.00  0.00   0.027   0.000   25.1    44   12.0   24.8   8.21  .0743    117    1    100.0    5 
20/03/19  12:15   10.6   10.7   10.6    86    8.3   8.0   WSW   0.67  10.0   WSW    8.7   10.6    8.7  1032.9  0.00  0.00   0.027   0.000   25.2    44   12.0   24.9   8.20  .0743    117    1    100.0    5 
20/03/19  12:20   10.4   10.6   10.4    86    8.1   7.0   WSW   0.58  10.0   WSW    8.9   10.4    8.9  1032.8  0.00  0.00   0.028   0.000   25.2    44   12.1   24.9   8.20  .0743    117    1    100.0    5 
20/03/19  12:25   10.2   10.4   10.2    87    8.1   9.0   SSW   0.75  12.0   SSW    7.9   10.3    8.1  1032.8  0.00  0.00   0.028   0.000   25.3    44   12.1   25.0   8.20  .0743    117    1    100.0    5 
20/03/19  12:30   10.1   10.2   10.1    86    7.8   9.0   SSW   0.75  12.0   SSW    7.8   10.1    7.8  1032.8  0.00  0.00   0.029   0.000   25.3    44   12.1   25.0   8.20  .0743    117    1    100.0    5 
20/03/19  12:35   10.1   10.1   10.1    86    7.8   9.0   SSW   0.75  11.0   SSW    7.8   10.1    7.8  1032.7  0.00  0.00   0.029   0.000   25.3    44   12.2   25.1   8.20  .0742    117    1    100.0    5 
20/03/19  12:40   10.2   10.2   10.1    87    8.1   8.0   SSW   0.67  10.0   SSW    8.3   10.3    8.4  1032.7  0.00  0.00   0.028   0.000   25.3    44   12.2   25.1   8.20  .0742    117    1    100.0    5 
20/03/19  12:45   10.3   10.3   10.2    87    8.2   7.0   SSW   0.58  10.0   SSW    8.8   10.3    8.8  1032.6  0.00  0.00   0.028   0.000   25.3    44   12.2   25.1   8.20  .0742    116    1    100.0    5 
20/03/19  12:50   10.4   10.4   10.3    87    8.4   8.0   SSW   0.67   9.0   SSW    8.6   10.5    8.7  1032.6  0.00  0.00   0.027   0.000   25.4    44   12.2   25.1   8.20  .0742    116    1    100.0    5 
20/03/19  12:55   10.5   10.5   10.4    86    8.3   8.0   SSW   0.67   9.0   SSW    8.7   10.6    8.7  1032.6  0.00  0.00   0.027   0.000   25.4    44   12.2   25.1   8.20  .0742    117    1    100.0    5 
20/03/19  13:00   10.6   10.6   10.5    86    8.3   8.0   SSW   0.67   9.0   SSW    8.7   10.6    8.7  1032.6  0.00  0.00   0.027   0.000   25.4    44   12.3   25.2   8.19  .0742    117    1    100.0    5 
20/03/19  13:05   10.6   10.6   10.5    86    8.3   6.0   SSW   0.50   9.0   SSW    9.4   10.6    9.4  1032.6  0.00  0.00   0.027   0.000   25.5    44   12.3   25.2   8.19  .0742    116    1    100.0    5 
20/03/19  13:10   10.7   10.7   10.6    87    8.6   6.0   SSW   0.50   8.0   SSW    9.6   10.8    9.6  1032.6  0.00  0.00   0.026   0.000   25.5    43   12.0   25.2   8.05  .0742    118    1    100.0    5 
20/03/19  13:15   10.9   10.9   10.7    86    8.6   6.0   SSW   0.50   9.0   SSW    9.8   10.9    9.8  1032.7  0.00  0.00   0.026   0.000   25.6    43   12.1   25.3   8.05  .0742    116    1    100.0    5 
20/03/19  13:20   10.8   10.9   10.8    86    8.5   6.0   SSW   0.50   9.0   SSW    9.6   10.8    9.6  1032.7  0.00  0.00   0.026   0.000   25.7    43   12.1   25.3   8.05  .0742    117    1    100.0    5 
20/03/19  13:25   10.7   10.8   10.7    86    8.5   5.0   SSW   0.42   7.0   SSW    9.9   10.7    9.9  1032.7  0.00  0.00   0.026   0.000   25.7    43   12.2   25.4   8.05  .0742    117    1    100.0    5 
20/03/19  13:30   10.7   10.8   10.7    86    8.5   5.0   SSW   0.42   7.0   SSW    9.9   10.7    9.9  1032.7  0.00  0.00   0.026   0.000   25.8    43   12.2   25.4   8.05  .0741    117    1    100.0    5 
20/03/19  13:35   10.6   10.8   10.6    86    8.4   5.0   SSW   0.42   6.0   SSW    9.7   10.6    9.7  1032.7  0.00  0.00   0.027   0.000   25.8    43   12.3   25.5   8.05  .0741    116    1    100.0    5 
20/03/19  13:40   10.5   10.6   10.5    86    8.3   5.0   SSW   0.42   8.0   SSW    9.6   10.6    9.7  1032.6  0.00  0.00   0.027   0.000   25.8    43   12.3   25.5   8.05  .0741    117    1    100.0    5 
20/03/19  13:45   10.3   10.5   10.3    86    8.1   7.0   SSW   0.58   8.0   SSW    8.8   10.4    8.9  1032.5  0.00  0.00   0.028   0.000   25.9    43   12.4   25.6   8.05  .0741    117    1    100.0    5 
20/03/19  13:50   10.2   10.3   10.2    87    8.2   6.0   SSW   0.50   8.0   SSW    9.0   10.3    9.1  1032.5  0.00  0.00   0.028   0.000   25.9    43   12.4   25.6   8.05  .0741    116    1    100.0    5 
20/03/19  13:55   10.2   10.2   10.2    87    8.1   7.0   SSW   0.58   9.0   SSW    8.7   10.3    8.8  1032.6  0.00  0.00   0.028   0.000   25.9    43   12.4   25.6   8.05  .0741    117    1    100.0    5 
20/03/19  14:00   10.2   10.2   10.1    86    7.9   7.0   SSW   0.58   9.0   SSW    8.7   10.2    8.7  1032.5  0.00  0.00   0.028   0.000   25.9    43   12.4   25.7   8.05  .0741    117    1    100.0    5 
20/03/19  14:05   10.1   10.2   10.1    86    7.9   5.0   SSW   0.42   8.0   SSW    9.1   10.2    9.2  1032.5  0.00  0.00   0.029   0.000   25.9    43   12.4   25.6   8.05  .0741    115    1    100.0    5 
20/03/19  14:10   10.0   10.1   10.0    86    7.8   5.0   SSW   0.42   7.0   SSW    9.0   10.1    9.1  1032.5  0.00  0.00   0.029   0.000   25.9    43   12.4   25.7   8.05  .0741    118    1    100.0    5 
20/03/19  14:15   10.1   10.1   10.0    86    7.8   3.0   SSW   0.25   6.0   SSW    9.9   10.1    9.9  1032.4  0.00  0.00   0.029   0.000   25.9    43   12.4   25.6   8.05  .0741    117    1    100.0    5 
20/03/19  14:20   10.1   10.1   10.1    86    7.8   6.0   SSW   0.50  10.0   SSW    8.8   10.1    8.8  1032.4  0.00  0.00   0.029   0.000   25.9    43   12.4   25.6   8.05  .0741    117    1    100.0    5 
20/03/19  14:25   10.1   10.1   10.0    86    7.8   7.0   SSW   0.58  10.0   SSW    8.5   10.1    8.6  1032.4  0.00  0.00   0.029   0.000   25.9    43   12.4   25.7   8.05  .0741    117    1    100.0    5 
20/03/19  14:30   10.1   10.1   10.1    86    7.8   6.0   SSW   0.50   9.0   SSW    8.8   10.1    8.8  1032.4  0.00  0.00   0.029   0.000   25.9    43   12.4   25.7   8.05  .0741    117    1    100.0    5 
20/03/19  14:35   10.1   10.1   10.1    86    7.8   7.0   SSW   0.58   9.0   SSW    8.5   10.1    8.6  1032.4  0.00  0.00   0.029   0.000   25.9    43   12.4   25.7   8.05  .0741    116    1    100.0    5 
20/03/19  14:40   10.1   10.1   10.1    86    7.8   6.0   SSW   0.50   9.0   SSW    8.8   10.1    8.8  1032.3  0.00  0.00   0.029   0.000   25.9    43   12.4   25.7   8.05  .0741    117    1    100.0    5 
20/03/19  14:45   10.1   10.1   10.0    86    7.8   6.0   SSW   0.50   9.0   SSW    8.8   10.1    8.8  1032.4  0.00  0.00   0.029   0.000   25.9    43   12.4   25.7   8.05  .0741    117    1    100.0    5 
20/03/19  14:50   10.1   10.1   10.1    86    7.8   7.0   SSW   0.58   9.0   SSW    8.5   10.1    8.6  1032.4  0.00  0.00   0.029   0.000   25.9    43   12.4   25.6   8.05  .0741    117    1    100.0    5 
20/03/19  14:55   10.1   10.1   10.1    86    7.9   6.0   SSW   0.50   9.0   SSW    8.8   10.2    8.9  1032.3  0.00  0.00   0.029   0.000   25.9    43   12.4   25.6   8.05  .0741    117    1    100.0    5 
20/03/19  15:00   10.2   10.2   10.1    86    7.9   6.0   SSW   0.50   8.0   SSW    8.9   10.2    9.0  1032.3  0.00  0.00   0.028   0.000   25.9    42   12.0   25.6   7.88  .0741    116    1    100.0    5 
20/03/19  15:05   10.2   10.2   10.2    86    7.9   6.0   SSW   0.50   9.0   SSW    8.9   10.2    9.0  1032.3  0.00  0.00   0.028   0.000   25.9    43   12.4   25.6   8.05  .0741    115    1    100.0    5 
20/03/19  15:10   10.1   10.2   10.1    86    7.8   7.0   SSW   0.58   9.0   SSW    8.5   10.1    8.6  1032.3  0.00  0.00   0.029   0.000   25.9    43   12.4   25.6   8.05  .0741    116    1    100.0    5 
20/03/19  15:15   10.1   10.1   10.1    86    7.8   7.0   SSW   0.58   9.0   SSW    8.5   10.1    8.6  1032.3  0.00  0.00   0.029   0.000   25.9    42   12.0   25.6   7.88  .0741    117    1    100.0    5 
20/03/19  15:20   10.1   10.1   10.0    87    8.0   6.0   SSW   0.50   8.0   SSW    8.8   10.2    8.9  1032.3  0.00  0.00   0.029   0.000   25.9    42   12.0   25.6   7.88  .0741    117    1    100.0    5 
20/03/19  15:25   10.1   10.1   10.1    87    8.0   6.0   SSW   0.50   8.0   SSW    8.8   10.2    8.9  1032.3  0.00  0.00   0.029   0.000   25.9    42   12.0   25.6   7.88  .0741    117    1    100.0    5 
20/03/19  15:30   10.1   10.1   10.1    87    8.0   5.0   SSW   0.42   8.0   SSW    9.1   10.2    9.2  1032.4  0.00  0.00   0.029   0.000   26.0    42   12.1   25.7   7.87  .0741    116    1    100.0    5 
20/03/19  15:35   10.1   10.1   10.1    87    8.0   6.0   SSW   0.50   8.0   SSW    8.8   10.2    8.9  1032.3  0.00  0.00   0.029   0.000   26.0    42   12.1   25.7   7.87  .0741    117    1    100.0    5 
20/03/19  15:40   10.1   10.1   10.1    87    8.0   6.0   SSW   0.50   9.0   SSW    8.8   10.2    8.9  1032.2  0.00  0.00   0.029   0.000   26.0    42   12.1   25.7   7.87  .0741    117    1    100.0    5 
20/03/19  15:45   10.1   10.1   10.0    87    8.0   6.0   SSW   0.50  10.0   SSW    8.8   10.2    8.9  1032.3  0.00  0.00   0.029   0.000   26.0    42   12.1   25.7   7.87  .0741    117    1    100.0    5 
20/03/19  15:50    9.9   10.0    9.9    87    7.9   6.0   SSW   0.50   9.0   SSW    8.7   10.1    8.8  1032.2  0.00  0.00   0.029   0.000   26.0    42   12.1   25.7   7.87  .0741    116    1    100.0    5 
20/03/19  15:55    9.9    9.9    9.9    87    7.9   6.0   SSW   0.50   9.0   SSW    8.7   10.1    8.8  1032.2  0.00  0.00   0.029   0.000   26.0    42   12.1   25.7   7.87  .0741    117    1    100.0    5 
20/03/19  16:00   10.0   10.0    9.9    87    7.9   7.0   SSW   0.58  10.0   SSW    8.4   10.1    8.6  1032.2  0.00  0.00   0.029   0.000   25.9    42   12.0   25.6   7.88  .0741    117    1    100.0    5 
20/03/19  16:05    9.9   10.0    9.9    87    7.9   8.0   SSW   0.67  10.0   SSW    8.0   10.1    8.1  1032.2  0.00  0.00   0.029   0.000   25.9    42   12.0   25.6   7.88  .0741    117    1    100.0    5 
20/03/19  16:10    9.9    9.9    9.9    87    7.9   7.0   SSW   0.58   9.0   SSW    8.4   10.1    8.5  1032.2  0.00  0.00   0.029   0.000   25.9    42   12.0   25.6   7.88  .0741    117    1    100.0    5 
20/03/19  16:15    9.9    9.9    9.9    87    7.8   7.0   SSW   0.58   9.0   SSW    8.3   10.0    8.4  1032.2  0.00  0.00   0.029   0.000   25.9    42   12.0   25.6   7.88  .0741    117    1    100.0    5 
20/03/19  16:20    9.9    9.9    9.9    87    7.8   7.0   SSW   0.58   9.0   SSW    8.3   10.0    8.4  1032.1  0.00  0.00   0.029   0.000   25.9    42   12.0   25.6   7.88  .0741    118    1    100.0    5 
20/03/19  16:25    9.8    9.9    9.8    87    7.8   8.0   SSW   0.67  10.0   SSW    7.8    9.9    7.9  1032.3  0.00  0.00   0.030   0.000   25.9    42   12.0   25.6   7.88  .0741    115    1    100.0    5 
20/03/19  16:30    9.8    9.8    9.8    87    7.8   8.0   SSW   0.67  11.0   SSW    7.8    9.9    7.9  1032.3  0.00  0.00   0.030   0.000   25.8    42   11.9   25.4   7.88  .0741    117    1    100.0    5 
20/03/19  16:35    9.8    9.8    9.8    87    7.8   7.0   SSW   0.58  10.0   SSW    8.2    9.9    8.3  1032.3  0.00  0.00   0.030   0.000   25.8    42   11.9   25.4   7.88  .0741    117    1    100.0    5 
20/03/19  16:40    9.9    9.9    9.8    87    7.8   8.0    SW   0.67  10.0   SSW    7.9   10.0    8.1  1032.2  0.00  0.00   0.029   0.000   25.8    42   11.9   25.4   7.88  .0741    117    1    100.0    5 
20/03/19  16:45    9.9    9.9    9.9    87    7.8   8.0    SW   0.67  11.0    SW    7.9   10.0    8.1  1032.2  0.00  0.00   0.029   0.000   25.8    42   11.9   25.4   7.88  .0741    113    1     99.1    5 
20/03/19  16:50    9.8    9.9    9.8    87    7.8   7.0    SW   0.58   9.0    SW    8.2    9.9    8.3  1032.2  0.00  0.00   0.030   0.000   25.8    41   11.5   25.3   7.75  .0741    116    1    100.0    5 
20/03/19  16:55    9.9    9.9    9.8    87    7.8   6.0    SW   0.50   8.0    SW    8.6   10.0    8.7  1032.3  0.00  0.00   0.029   0.000   25.7    41   11.5   25.3   7.75  .0742    116    1    100.0    5 
20/03/19  17:00    9.9    9.9    9.8    87    7.8   6.0    SW   0.50   8.0    SW    8.6   10.0    8.7  1032.3  0.00  0.00   0.029   0.000   25.7    41   11.5   25.3   7.75  .0742    117    1    100.0    5 
20/03/19  17:05    9.8    9.9    9.8    87    7.8   6.0    SW   0.50  10.0    SW    8.5    9.9    8.6  1032.3  0.00  0.00   0.030   0.000   25.7    41   11.5   25.3   7.75  .0742    117    1    100.0    5 
20/03/19  17:10    9.8    9.9    9.8    87    7.8   7.0    SW   0.58  10.0    SW    8.2    9.9    8.3  1032.3  0.00  0.00   0.030   0.000   25.7    41   11.5   25.3   7.75  .0742    117    1    100.0    5 
20/03/19  17:15    9.8    9.8    9.8    87    7.7   6.0    SW   0.50   9.0    SW    8.4    9.9    8.6  1032.3  0.00  0.00   0.030   0.000   25.7    42   11.8   25.3   7.88  .0741    116    1    100.0    5 
20/03/19  17:20    9.8    9.8    9.8    87    7.7   7.0    SW   0.58  10.0    SW    8.2    9.9    8.3  1032.3  0.00  0.00   0.030   0.000   25.7    42   11.8   25.3   7.88  .0741    116    1    100.0    5 
20/03/19  17:25    9.8    9.8    9.8    87    7.7   7.0    SW   0.58  10.0    SW    8.2    9.9    8.3  1032.3  0.00  0.00   0.030   0.000   25.7    42   11.8   25.3   7.88  .0741    117    1    100.0    5 
20/03/19  17:30    9.8    9.8    9.7    87    7.7   8.0    SW   0.67  11.0    SW    7.8    9.9    7.9  1032.3  0.00  0.00   0.030   0.000   25.7    42   11.8   25.3   7.88  .0741    117    1    100.0    5 
20/03/19  17:35    9.7    9.8    9.7    87    7.7   8.0    SW   0.67  11.0    SW    7.7    9.8    7.8  1032.3  0.00  0.00   0.030   0.000   25.7    42   11.8   25.3   7.88  .0741    117    1    100.0    5 
20/03/19  17:40    9.7    9.7    9.7    87    7.7   9.0   SSW   0.75  12.0   SSW    7.4    9.8    7.5  1032.3  0.00  0.00   0.030   0.000   25.7    42   11.8   25.3   7.88  .0741    117    1    100.0    5 
20/03/19  17:45    9.8    9.8    9.7    87    7.7  10.0   SSW   0.83  13.0   SSW    7.1    9.9    7.2  1032.3  0.00  0.00   0.030   0.000   25.7    42   11.8   25.3   7.89  .0742    116    1    100.0    5 
20/03/19  17:50    9.7    9.8    9.7    87    7.7  10.0   SSW   0.83  13.0   SSW    7.1    9.8    7.2  1032.3  0.00  0.00   0.030   0.000   25.6    42   11.7   25.2   7.89  .0742    117    1    100.0    5 
20/03/19  17:55    9.7    9.7    9.7    87    7.6   8.0    SW   0.67  12.0    SW    7.7    9.8    7.8  1032.3  0.00  0.00   0.030   0.000   25.6    42   11.7   25.2   7.89  .0742    117    1    100.0    5 
20/03/19  18:00    9.7    9.7    9.7    87    7.6   7.0    SW   0.58  10.0    SW    8.1    9.8    8.2  1032.5  0.00  0.00   0.030   0.000   25.6    42   11.7   25.2   7.89  .0742    117    1    100.0    5 
20/03/19  18:05    9.6    9.7    9.6    87    7.6   8.0    SW   0.67  11.0    SW    7.6    9.7    7.7  1032.6  0.00  0.00   0.030   0.000   25.5    42   11.6   25.1   7.89  .0742    117    1    100.0    5 
20/03/19  18:10    9.6    9.6    9.6    87    7.6   9.0    SW   0.75  12.0    SW    7.3    9.7    7.4  1032.6  0.00  0.00   0.030   0.000   25.5    42   11.6   25.1   7.89  .0742    117    1    100.0    5 
20/03/19  18:15    9.6    9.6    9.6    87    7.5   9.0    SW   0.75  14.0   SSW    7.2    9.7    7.3  1032.6  0.00  0.00   0.030   0.000   25.4    42   11.6   25.1   7.89  .0743    117    1    100.0    5 
20/03/19  18:20    9.4    9.6    9.4    87    7.4   9.0    SW   0.75  12.0    SW    7.1    9.6    7.2  1032.6  0.00  0.00   0.031   0.000   25.4    42   11.6   25.1   7.89  .0743    117    1    100.0    5 
20/03/19  18:25    9.4    9.4    9.4    87    7.4   9.0    SW   0.75  13.0    SW    7.1    9.6    7.2  1032.7  0.00  0.00   0.031   0.000   25.4    42   11.5   25.0   7.90  .0743    117    1    100.0    5 
20/03/19  18:30    9.4    9.4    9.4    87    7.4   9.0    SW   0.75  12.0    SW    7.1    9.6    7.2  1032.8  0.00  0.00   0.031   0.000   25.4    42   11.5   25.0   7.90  .0743    118    1    100.0    5 
20/03/19  18:35    9.4    9.4    9.4    87    7.4   8.0    SW   0.67  11.0    SW    7.4    9.6    7.5  1032.8  0.00  0.00   0.031   0.000   25.4    42   11.5   25.0   7.90  .0743    117    1    100.0    5 
20/03/19  18:40    9.5    9.5    9.4    87    7.4   8.0    SW   0.67  11.0    SW    7.4    9.6    7.6  1032.9  0.00  0.00   0.031   0.000   25.3    42   11.5   24.9   7.90  .0743    115    1    100.0    5 
20/03/19  18:45    9.4    9.5    9.4    87    7.4   8.0    SW   0.67  11.0    SW    7.4    9.6    7.5  1032.9  0.00  0.00   0.031   0.000   25.3    42   11.5   24.9   7.90  .0743    117    1    100.0    5 
20/03/19  18:50    9.5    9.5    9.4    87    7.4   9.0    SW   0.75  12.0    SW    7.1    9.6    7.2  1032.9  0.00  0.00   0.031   0.000   25.3    42   11.5   24.9   7.90  .0743    116    1    100.0    5 
20/03/19  18:55    9.6    9.6    9.5    87    7.5  11.0    SW   0.92  13.0    SW    6.6    9.7    6.7  1033.0  0.00  0.00   0.030   0.000   25.3    42   11.5   24.9   7.90  .0743    117    1    100.0    5 
20/03/19  19:00    9.6    9.6    9.5    87    7.5  10.0    SW   0.83  15.0    SW    6.8    9.7    6.9  1033.0  0.00  0.00   0.030   0.000   25.3    42   11.5   24.9   7.90  .0743    116    1    100.0    5 
20/03/19  19:05    9.6    9.6    9.6    87    7.6  10.0    SW   0.83  13.0    SW    6.9    9.7    7.1  1033.0  0.00  0.00   0.030   0.000   25.3    42   11.5   24.9   7.90  .0743    117    1    100.0    5 
20/03/19  19:10    9.7    9.7    9.6    87    7.6   6.0    SW   0.50   8.0    SW    8.3    9.8    8.4  1033.0  0.00  0.00   0.030   0.000   25.3    42   11.4   24.9   7.90  .0743    117    1    100.0    5 
20/03/19  19:15    9.6    9.7    9.6    86    7.4   6.0    SW   0.50   8.0    SW    8.3    9.7    8.3  1033.0  0.00  0.00   0.030   0.000   25.3    42   11.4   24.9   7.90  .0743    116    1    100.0    5 
20/03/19  19:20    9.6    9.7    9.6    86    7.4   7.0    SW   0.58  10.0    SW    8.0    9.7    8.1  1033.0  0.00  0.00   0.030   0.000   25.3    42   11.4   24.9   7.90  .0743    116    1    100.0    5 
20/03/19  19:25    9.5    9.6    9.5    86    7.3   9.0   WSW   0.75  12.0   WSW    7.1    9.6    7.2  1033.1  0.00  0.00   0.031   0.000   25.2    42   11.4   24.8   7.90  .0744    117    1    100.0    5 
20/03/19  19:30    9.6    9.6    9.5    85    7.2   8.0   WSW   0.67  11.0   WSW    7.5    9.6    7.6  1033.1  0.00  0.00   0.030   0.000   25.2    42   11.4   24.8   7.90  .0744    118    1    100.0    5 
20/03/19  19:35    9.6    9.6    9.6    85    7.2   9.0   WSW   0.75  11.0   WSW    7.2    9.6    7.2  1033.0  0.00  0.00   0.030   0.000   25.2    42   11.3   24.8   7.90  .0744    117    1    100.0    5 
20/03/19  19:40    9.5    9.6    9.5    85    7.1   9.0    SW   0.75  12.0    SW    7.1    9.6    7.2  1033.0  0.00  0.00   0.031   0.000   25.2    42   11.3   24.8   7.90  .0744    116    1    100.0    5 
20/03/19  19:45    9.4    9.5    9.4    85    7.0   9.0    SW   0.75  12.0    SW    7.1    9.5    7.1  1033.0  0.00  0.00   0.031   0.000   25.1    42   11.3   24.7   7.91  .0744    116    1    100.0    5 
20/03/19  19:50    9.4    9.5    9.4    85    7.0   9.0    SW   0.75  13.0    SW    7.1    9.5    7.1  1033.0  0.00  0.00   0.031   0.000   25.1    42   11.3   24.7   7.91  .0744    117    1    100.0    5 
20/03/19  19:55    9.4    9.4    9.4    85    7.0   9.0    SW   0.75  12.0    SW    7.1    9.5    7.1  1033.0  0.00  0.00   0.031   0.000   25.1    42   11.2   24.7   7.91  .0744    117    1    100.0    5 
20/03/19  20:00    9.4    9.5    9.4    85    7.0  10.0    SW   0.83  13.0    SW    6.7    9.5    6.8  1033.1  0.00  0.00   0.031   0.000   25.1    42   11.2   24.7   7.91  .0744    116    1    100.0    5 
20/03/19  20:05    9.5    9.5    9.4    85    7.1  10.0    SW   0.83  12.0    SW    6.8    9.6    6.8  1033.2  0.00  0.00   0.031   0.000   25.1    42   11.2   24.7   7.91  .0744    117    1    100.0    5 
20/03/19  20:10    9.6    9.6    9.5    84    7.0   9.0    SW   0.75  12.0    SW    7.2    9.6    7.2  1033.3  0.00  0.00   0.030   0.000   25.1    42   11.2   24.7   7.91  .0744    117    1    100.0    5 
20/03/19  20:15    9.5    9.6    9.5    84    6.9   7.0   WSW   0.58  11.0   WSW    7.8    9.6    7.9  1033.3  0.00  0.00   0.031   0.000   25.1    42   11.2   24.7   7.91  .0744    116    1    100.0    5 
20/03/19  20:20    9.4    9.5    9.4    84    6.9   7.0   WSW   0.58  11.0   WSW    7.8    9.5    7.8  1033.3  0.00  0.00   0.031   0.000   25.1    42   11.2   24.7   7.91  .0744    116    1    100.0    5 
20/03/19  20:25    9.4    9.4    9.4    84    6.8   8.0   WSW   0.67  12.0   WSW    7.3    9.4    7.4  1033.4  0.00  0.00   0.031   0.000   25.1    42   11.2   24.7   7.91  .0744    116    1    100.0    5 
20/03/19  20:30    9.4    9.4    9.4    84    6.9   7.0   WSW   0.58  10.0   WSW    7.8    9.5    7.8  1033.4  0.00  0.00   0.031   0.000   25.1    42   11.3   24.7   7.91  .0744    117    1    100.0    5 
20/03/19  20:35    9.4    9.4    9.3    84    6.8   7.0   WSW   0.58  10.0   WSW    7.7    9.4    7.8  1033.4  0.00  0.00   0.031   0.000   25.1    42   11.2   24.7   7.91  .0744    118    1    100.0    5 
20/03/19  20:40    9.4    9.4    9.4    84    6.8   7.0   WSW   0.58  10.0   WSW    7.7    9.4    7.8  1033.3  0.00  0.00   0.031   0.000   25.1    42   11.2   24.7   7.91  .0744    117    1    100.0    5 
20/03/19  20:45    9.4    9.4    9.4    84    6.8   6.0   WSW   0.50   9.0   WSW    8.0    9.4    8.1  1033.3  0.00  0.00   0.031   0.000   25.0    42   11.2   24.6   7.91  .0744    117    1    100.0    5 
20/03/19  20:50    9.4    9.4    9.4    84    6.8   7.0   WSW   0.58  11.0   WSW    7.7    9.4    7.8  1033.3  0.00  0.00   0.031   0.000   25.0    42   11.2   24.6   7.91  .0744    117    1    100.0    5 
20/03/19  20:55    9.3    9.4    9.3    85    6.9   9.0   WSW   0.75  12.0   WSW    6.9    9.4    7.0  1033.4  0.00  0.00   0.031   0.000   25.0    42   11.2   24.6   7.91  .0744    115    1    100.0    5 
20/03/19  21:00    9.3    9.3    9.3    84    6.7   9.0   WSW   0.75  14.0   WSW    6.8    9.3    6.8  1033.4  0.00  0.00   0.031   0.000   24.9    42   11.1   24.6   7.91  .0745    115    1    100.0    5 
20/03/19  21:05    9.2    9.3    9.2    84    6.7   9.0   WSW   0.75  13.0   WSW    6.8    9.2    6.8  1033.4  0.00  0.00   0.032   0.000   24.9    42   11.1   24.6   7.91  .0745    117    1    100.0    5 
20/03/19  21:10    9.1    9.2    9.1    85    6.7   9.0   WSW   0.75  12.0   WSW    6.7    9.1    6.7  1033.4  0.00  0.00   0.032   0.000   24.9    42   11.1   24.5   7.91  .0745    117    1    100.0    5 
20/03/19  21:15    9.1    9.1    9.1    85    6.7   8.0   WSW   0.67  11.0   WSW    6.9    9.1    6.9  1033.4  0.00  0.00   0.032   0.000   24.8    42   11.0   24.4   7.92  .0745    116    1    100.0    5 
20/03/19  21:20    9.1    9.1    9.0    85    6.7   9.0   WSW   0.75  12.0   WSW    6.6    9.1    6.6  1033.4  0.00  0.00   0.032   0.000   24.8    42   11.0   24.4   7.92  .0745    116    1    100.0    5 
20/03/19  21:25    9.0    9.1    9.0    85    6.6   9.0   WSW   0.75  12.0   WSW    6.5    9.0    6.5  1033.4  0.00  0.00   0.032   0.000   24.8    41   10.7   24.4   7.75  .0745    116    1    100.0    5 
20/03/19  21:30    9.1    9.1    9.0    85    6.7   9.0   WSW   0.75  12.0   WSW    6.6    9.1    6.6  1033.4  0.00  0.00   0.032   0.000   24.8    41   10.7   24.4   7.75  .0745    114    1    100.0    5 
20/03/19  21:35    9.1    9.1    9.1    85    6.7   8.0   WSW   0.67  12.0   WSW    6.9    9.1    6.9  1033.4  0.00  0.00   0.032   0.000   24.8    41   10.7   24.4   7.75  .0745    117    1    100.0    5 
20/03/19  21:40    9.1    9.2    9.1    85    6.7   9.0   WSW   0.75  11.0   WSW    6.7    9.1    6.7  1033.4  0.00  0.00   0.032   0.000   24.8    41   10.7   24.4   7.75  .0745    117    1    100.0    5 
20/03/19  21:45    9.1    9.1    9.1    85    6.7   9.0   WSW   0.75  11.0   WSW    6.7    9.1    6.7  1033.3  0.00  0.00   0.032   0.000   24.8    41   10.7   24.4   7.75  .0745    117    1    100.0    5 
20/03/19  21:50    9.1    9.1    9.1    85    6.7   9.0    SW   0.75  11.0   WSW    6.6    9.1    6.6  1033.3  0.00  0.00   0.032   0.000   24.9    41   10.7   24.4   7.75  .0745    117    1    100.0    5 
20/03/19  21:55    9.1    9.1    9.1    85    6.7   8.0    SW   0.67  10.0    SW    6.9    9.1    6.9  1033.3  0.00  0.00   0.032   0.000   24.9    42   11.1   24.5   7.91  .0745    117    1    100.0    5 
20/03/19  22:00    9.1    9.1    9.1    85    6.7   7.0    SW   0.58   9.0    SW    7.3    9.1    7.3  1033.2  0.00  0.00   0.032   0.000   24.8    41   10.7   24.4   7.75  .0745    117    1    100.0    5 
20/03/19  22:05    9.0    9.1    9.0    85    6.6   6.0    SW   0.50   8.0    SW    7.5    9.0    7.5  1033.4  0.00  0.00   0.032   0.000   24.4    41   10.3   24.0   7.75  .0746    117    1    100.0    5 
20/03/19  22:10    9.1    9.1    9.0    85    6.7   6.0    SW   0.50   8.0    SW    7.6    9.1    7.6  1033.3  0.00  0.00   0.032   0.000   23.9    42   10.2   23.6   7.95  .0748    117    1    100.0    5 
20/03/19  22:15    9.0    9.1    9.0    85    6.6   7.0    SW   0.58   9.0    SW    7.2    9.0    7.2  1033.3  0.00  0.00   0.032   0.000   23.6    43   10.2   23.2   8.07  .0749    117    1    100.0    5 
20/03/19  22:20    9.1    9.1    9.0    85    6.7   7.0    SW   0.58   8.0    SW    7.3    9.1    7.3  1033.3  0.00  0.00   0.032   0.000   23.2    43    9.9   22.8   8.10  .0750    117    1    100.0    5 
20/03/19  22:25    9.1    9.1    9.0    85    6.7   8.0    SW   0.67  10.0    SW    6.9    9.1    6.9  1033.2  0.00  0.00   0.032   0.000   22.8    44    9.9   22.3   8.29  .0751    116    1    100.0    5 
20/03/19  22:30    9.0    9.1    9.0    85    6.6   8.0    SW   0.67  11.0    SW    6.8    9.0    6.8  1033.2  0.00  0.00   0.032   0.000   22.4    44    9.6   21.7   8.30  .0752    115    1    100.0    5 
20/03/19  22:35    9.1    9.1    9.0    85    6.7   8.0    SW   0.67  10.0    SW    6.9    9.1    6.9  1033.3  0.00  0.00   0.032   0.000   22.1    45    9.6   21.3   8.45  .0753    115    1    100.0    5 
20/03/19  22:40    9.1    9.1    9.1    85    6.7   8.0    SW   0.67  11.0    SW    6.9    9.1    6.9  1033.3  0.00  0.00   0.032   0.000   21.8    46    9.7   20.9   8.62  .0753    116    1    100.0    5 
20/03/19  22:45    9.0    9.1    9.0    85    6.6   8.0    SW   0.67  10.0    SW    6.8    9.0    6.8  1033.3  0.00  0.00   0.032   0.000   21.7    47    9.9   20.7   8.75  .0754    118    1    100.0    5 
20/03/19  22:50    9.1    9.1    9.0    85    6.7   7.0    SW   0.58   9.0    SW    7.3    9.1    7.3  1033.3  0.00  0.00   0.032   0.000   21.5    47    9.7   20.5   8.75  .0754    117    1    100.0    5 
20/03/19  22:55    9.0    9.1    9.0    85    6.6   8.0    SW   0.67  10.0    SW    6.8    9.0    6.8  1033.3  0.00  0.00   0.032   0.000   21.3    48    9.9   20.3   8.86  .0754    117    1    100.0    5 
20/03/19  23:00    8.9    9.0    8.9    86    6.7   8.0    SW   0.67  10.0    SW    6.8    8.9    6.8  1033.3  0.00  0.00   0.033   0.000   21.1    48    9.7   20.1   8.85  .0755    117    1    100.0    5 
20/03/19  23:05    8.9    8.9    8.9    86    6.7   7.0    SW   0.58  10.0    SW    7.2    8.9    7.2  1033.2  0.00  0.00   0.033   0.000   20.9    48    9.5   19.9   8.86  .0756    116    1    100.0    5 
20/03/19  23:10    8.9    8.9    8.9    86    6.7   7.0    SW   0.58   9.0    SW    7.2    8.9    7.2  1033.2  0.00  0.00   0.033   0.000   20.8    49    9.7   19.9   9.06  .0756    116    1    100.0    5 
20/03/19  23:15    8.9    8.9    8.9    86    6.7   7.0    SW   0.58   9.0    SW    7.2    8.9    7.2  1033.2  0.00  0.00   0.033   0.000   20.8    49    9.7   19.9   9.06  .0756    117    1    100.0    5 
20/03/19  23:20    8.9    8.9    8.9    86    6.7   7.0    SW   0.58  10.0    SW    7.2    8.9    7.2  1033.3  0.00  0.00   0.033   0.000   20.7    49    9.6   19.8   9.06  .0756    115    1    100.0    5 
20/03/19  23:25    8.9    8.9    8.9    86    6.7   7.0    SW   0.58   9.0    SW    7.2    8.9    7.2  1033.3  0.00  0.00   0.033   0.000   20.6    49    9.5   19.8   9.07  .0757    117    1    100.0    5 
20/03/19  23:30    8.9    8.9    8.9    86    6.7   6.0    SW   0.50   8.0    SW    7.4    8.9    7.4  1033.3  0.00  0.00   0.033   0.000   20.6    50    9.8   19.8   9.27  .0757    115    1    100.0    5 
20/03/19  23:35    8.9    8.9    8.9    86    6.7   6.0    SW   0.50   9.0    SW    7.4    8.9    7.4  1033.3  0.00  0.00   0.033   0.000   20.5    50    9.7   19.7   9.27  .0757    116    1    100.0    5 
20/03/19  23:40    8.9    8.9    8.9    86    6.7   7.0    SW   0.58   9.0    SW    7.2    8.9    7.2  1033.3  0.00  0.00   0.033   0.000   20.5    50    9.7   19.7   9.27  .0757    117    1    100.0    5 
20/03/19  23:45    8.9    8.9    8.9    86    6.7   6.0    SW   0.50   8.0    SW    7.4    8.9    7.4  1033.3  0.00  0.00   0.033   0.000   20.5    50    9.7   19.7   9.27  .0757    118    1    100.0    5 
20/03/19  23:50    8.9    9.0    8.9    86    6.7   6.0    SW   0.50   8.0    SW    7.4    8.9    7.4  1033.3  0.00  0.00   0.033   0.000   20.5    50    9.7   19.7   9.27  .0757    117    1    100.0    5 
20/03/19  23:55    8.9    9.0    8.9    86    6.7   7.0    SW   0.58   9.0    SW    7.2    8.9    7.2  1033.3  0.00  0.00   0.033   0.000   20.4    50    9.7   19.7   9.27  .0757    116    1    100.0    5 
21/03/19  00:00    8.9    8.9    8.9    86    6.7   7.0    SW   0.58   9.0    SW    7.2    8.9    7.2  1033.3  0.00  0.00   0.033   0.000   20.4    50    9.6   19.6   9.28  .0757    117    1    100.0    5 
21/03/19   0:05    9.0    9.0    8.9    86    6.8   5.0    SW   0.42   7.0    SW    7.8    9.1    7.9  1033.2  0.00  0.00   0.032   0.000   20.5    50    9.7   19.7   9.27  .0757    115    1    100.0    5 
21/03/19   0:10    9.0    9.0    9.0    86    6.8   6.0    SW   0.50   8.0    SW    7.5    9.1    7.6  1033.3  0.00  0.00   0.032   0.000   20.7    50    9.9   19.8   9.27  .0756    115    1    100.0    5 
21/03/19   0:15    9.0    9.0    9.0    86    6.8   6.0    SW   0.50   8.0    SW    7.5    9.1    7.6  1033.2  0.00  0.00   0.032   0.000   20.8    49    9.7   19.9   9.06  .0756    117    1    100.0    5 
21/03/19   0:20    9.0    9.0    9.0    86    6.8   6.0    SW   0.50   8.0    SW    7.5    9.1    7.6  1033.3  0.00  0.00   0.032   0.000   20.9    49    9.8   20.0   9.06  .0756    117    1    100.0    5 
21/03/19   0:25    8.9    9.0    8.9    86    6.7   7.0    SW   0.58  10.0    SW    7.2    8.9    7.2  1033.2  0.00  0.00   0.033   0.000   20.9    49    9.8   20.0   9.06  .0755    117    1    100.0    5 
21/03/19   0:30    9.0    9.0    8.9    86    6.8   8.0    SW   0.67  12.0    SW    6.8    9.1    6.9  1033.2  0.00  0.00   0.032   0.000   20.8    49    9.7   19.9   9.06  .0756    115    1    100.0    5 
21/03/19   0:35    9.1    9.1    9.0    86    6.8   9.0    SW   0.75  11.0    SW    6.6    9.1    6.7  1033.2  0.00  0.00   0.032   0.000   20.7    50    9.9   19.8   9.27  .0756    117    1    100.0    5 
21/03/19   0:40    9.0    9.1    9.0    86    6.8   7.0    SW   0.58  10.0    SW    7.2    9.1    7.3  1033.1  0.00  0.00   0.032   0.000   20.6    50    9.8   19.8   9.27  .0756    116    1    100.0    5 
21/03/19   0:45    9.1    9.1    9.0    86    6.8   7.0    SW   0.58  10.0    SW    7.3    9.1    7.4  1033.0  0.00  0.00   0.032   0.000   20.6    50    9.8   19.8   9.27  .0756    117    1    100.0    5 
21/03/19   0:50    9.0    9.1    9.0    86    6.8   7.0    SW   0.58  10.0    SW    7.2    9.1    7.3  1033.0  0.00  0.00   0.032   0.000   20.5    50    9.7   19.7   9.27  .0757    115    1    100.0    5 
21/03/19   0:55    9.0    9.0    9.0    86    6.8   7.0    SW   0.58  10.0    SW    7.2    9.1    7.3  1033.0  0.00  0.00   0.032   0.000   20.3    50    9.6   19.6   9.28  .0757    117    1    100.0    5 
21/03/19   1:00    9.1    9.1    9.0    86    6.8   7.0    SW   0.58  10.0    SW    7.3    9.1    7.4  1033.1  0.00  0.00   0.032   0.000   20.2    50    9.5   19.5   9.28  .0757    117    1    100.0    5 
21/03/19   1:05    9.1    9.1    9.0    86    6.8   8.0    SW   0.67  10.0    SW    6.9    9.1    7.0  1033.0  0.00  0.00   0.032   0.000   20.1    50    9.4   19.4   9.29  .0758    117    1    100.0    5 
21/03/19   1:10    9.1    9.1    9.0    86    6.8   9.0    SW   0.75  11.0    SW    6.6    9.1    6.7  1032.9  0.00  0.00   0.032   0.000   20.0    51    9.6   19.3   9.49  .0758    117    1    100.0    5 
21/03/19   1:15    9.1    9.1    9.1    86    6.8   9.0    SW   0.75  11.0    SW    6.6    9.1    6.7  1033.0  0.00  0.00   0.032   0.000   19.8    51    9.4   19.2   9.50  .0758    118    1    100.0    5 
21/03/19   1:20    9.1    9.1    9.1    86    6.8   8.0    SW   0.67  10.0    SW    6.9    9.1    7.0  1032.9  0.00  0.00   0.032   0.000   19.7    52    9.5   19.0   9.70  .0759    115    1    100.0    5 
21/03/19   1:25    9.1    9.1    9.1    86    6.8   8.0    SW   0.67  10.0    SW    6.9    9.1    7.0  1032.9  0.00  0.00   0.032   0.000   19.6    52    9.5   18.9   9.70  .0759    117    1    100.0    5 
21/03/19   1:30    9.1    9.1    9.1    86    6.8   8.0    SW   0.67  10.0    SW    6.9    9.1    7.0  1032.9  0.00  0.00   0.032   0.000   19.6    53    9.7   18.9   9.91  .0759    117    1    100.0    5 
21/03/19   1:35    9.1    9.1    9.1    86    6.9   7.0    SW   0.58   9.0    SW    7.4    9.2    7.4  1032.9  0.00  0.00   0.032   0.000   19.6    53    9.8   19.0   9.90  .0759    117    1    100.0    5 
21/03/19   1:40    9.1    9.1    9.1    86    6.8   7.0    SW   0.58  10.0    SW    7.3    9.1    7.4  1032.8  0.00  0.00   0.032   0.000   19.7    52    9.5   19.0   9.70  .0759    115    1    100.0    5 
21/03/19   1:45    9.1    9.1    9.1    86    6.8   7.0    SW   0.58  10.0    SW    7.3    9.1    7.4  1032.8  0.00  0.00   0.032   0.000   19.8    52    9.6   19.2   9.70  .0758    117    1    100.0    5 
21/03/19   1:50    9.1    9.1    9.1    86    6.8   7.0    SW   0.58   9.0    SW    7.3    9.1    7.4  1032.8  0.00  0.00   0.032   0.000   19.9    52    9.8   19.3   9.69  .0758    116    1    100.0    5 
21/03/19   1:55    9.1    9.1    9.1    87    7.0   7.0    SW   0.58   9.0    SW    7.3    9.1    7.4  1032.8  0.00  0.00   0.032   0.000   19.9    52    9.8   19.3   9.69  .0758    117    1    100.0    5 
21/03/19   2:00    9.1    9.1    9.1    87    7.0   7.0    SW   0.58   9.0    SW    7.3    9.1    7.4  1032.7  0.00  0.00   0.032   0.000   19.9    52    9.8   19.3   9.69  .0758    115    1    100.0    5 
21/03/19   2:05    9.1    9.1    9.1    87    7.0   6.0    SW   0.50   8.0    SW    7.6    9.1    7.7  1032.6  0.00  0.00   0.032   0.000   20.1    51    9.6   19.4   9.49  .0757    116    1    100.0    5 
21/03/19   2:10    9.1    9.1    9.1    87    7.0   5.0    SW   0.42   7.0    SW    7.9    9.1    7.9  1032.6  0.00  0.00   0.032   0.000   20.2    51    9.7   19.5   9.48  .0757    117    1    100.0    5 
21/03/19   2:15    9.1    9.1    9.1    87    7.0   7.0    SW   0.58   8.0    SW    7.3    9.1    7.4  1032.6  0.00  0.00   0.032   0.000   20.2    51    9.8   19.6   9.48  .0757    116    1    100.0    5 
21/03/19   2:20    9.1    9.1    9.1    87    7.0   7.0    SW   0.58   9.0    SW    7.3    9.1    7.4  1032.6  0.00  0.00   0.032   0.000   20.2    51    9.8   19.6   9.48  .0757    118    1    100.0    5 
21/03/19   2:25    9.1    9.1    9.0    87    7.0   7.0    SW   0.58   9.0    SW    7.3    9.1    7.4  1032.7  0.00  0.00   0.032   0.000   20.1    51    9.7   19.4   9.49  .0757    116    1    100.0    5 
21/03/19   2:30    9.1    9.1    9.1    87    7.0   6.0    SW   0.50   8.0    SW    7.6    9.1    7.7  1032.6  0.00  0.00   0.032   0.000   20.1    51    9.6   19.4   9.49  .0757    117    1    100.0    5 
21/03/19   2:35    9.1    9.1    9.1    87    7.0   5.0    SW   0.42   9.0    SW    7.9    9.1    7.9  1032.5  0.00  0.00   0.032   0.000   20.2    51    9.7   19.5   9.48  .0757    116    1    100.0    5 
21/03/19   2:40    9.1    9.1    9.1    87    7.0   6.0    SW   0.50   9.0    SW    7.6    9.1    7.7  1032.6  0.00  0.00   0.032   0.000   20.3    51    9.8   19.6   9.48  .0757    117    1    100.0    5 
21/03/19   2:45    9.1    9.1    9.1    87    7.0   5.0    SW   0.42   8.0    SW    7.9    9.1    7.9  1032.6  0.00  0.00   0.032   0.000   20.4    51    9.9   19.7   9.48  .0756    116    1    100.0    5 
21/03/19   2:50    9.1    9.1    9.1    87    7.0   6.0    SW   0.50   8.0    SW    7.6    9.1    7.7  1032.6  0.00  0.00   0.032   0.000   20.4    50    9.7   19.7   9.27  .0756    117    1    100.0    5 
21/03/19   2:55    9.1    9.1    9.1    87    7.0   5.0    SW   0.42   8.0    SW    7.9    9.1    7.9  1032.6  0.00  0.00   0.032   0.000   20.6    50    9.8   19.8   9.27  .0756    117    1    100.0    5 
21/03/19   3:00    9.1    9.1    9.1    87    7.0   4.0    SW   0.33   7.0    SW    8.3    9.1    8.3  1032.6  0.00  0.00   0.032   0.000   20.7    50    9.9   19.9   9.26  .0756    117    1    100.0    5 
21/03/19   3:05    9.1    9.1    9.1    87    7.0   5.0    SW   0.42   8.0    SW    7.9    9.1    7.9  1032.5  0.00  0.00   0.032   0.000   20.8    50   10.0   19.9   9.26  .0755    116    1    100.0    5 
21/03/19   3:10    9.1    9.1    9.1    87    7.0   6.0    SW   0.50   9.0    SW    7.6    9.1    7.7  1032.6  0.00  0.00   0.032   0.000   20.9    50   10.1   20.0   9.26  .0755    115    1    100.0    5 
21/03/19   3:15    9.1    9.1    9.1    87    7.0   5.0    SW   0.42   8.0    SW    7.9    9.1    7.9  1032.5  0.00  0.00   0.032   0.000   20.9    50   10.1   20.0   9.26  .0755    117    1    100.0    5 
21/03/19   3:20    9.1    9.1    9.1    87    7.0   6.0    SW   0.50   9.0    SW    7.6    9.1    7.7  1032.5  0.00  0.00   0.032   0.000   20.9    50   10.1   20.0   9.26  .0755    118    1    100.0    5 
21/03/19   3:25    9.1    9.1    9.1    87    7.0   5.0    SW   0.42   8.0    SW    7.9    9.1    7.9  1032.5  0.00  0.00   0.032   0.000   20.8    50   10.0   19.9   9.26  .0755    117    1    100.0    5 
21/03/19   3:30    9.1    9.1    9.1    87    7.0   6.0    SW   0.50   9.0    SW    7.6    9.1    7.7  1032.4  0.00  0.00   0.032   0.000   20.9    50   10.1   20.0   9.26  .0755    116    1    100.0    5 
21/03/19   3:35    9.1    9.1    9.1    87    7.0   5.0    SW   0.42   8.0    SW    7.9    9.1    7.9  1032.4  0.00  0.00   0.032   0.000   20.9    50   10.1   20.1   9.26  .0755    116    1    100.0    5 
21/03/19   3:40    9.1    9.1    9.1    87    7.0   7.0    SW   0.58   9.0    SW    7.3    9.1    7.4  1032.4  0.00  0.00   0.032   0.000   20.9    50   10.1   20.0   9.26  .0755    117    1    100.0    5 
21/03/19   3:45    9.1    9.1    9.1    87    7.0   7.0    SW   0.58   9.0    SW    7.3    9.1    7.4  1032.4  0.00  0.00   0.032   0.000   20.8    50   10.0   19.9   9.26  .0755    117    1    100.0    5 
21/03/19   3:50    9.1    9.1    9.1    87    7.0   6.0    SW   0.50   8.0    SW    7.6    9.1    7.7  1032.4  0.00  0.00   0.032   0.000   20.7    50    9.9   19.8   9.27  .0756    117    1    100.0    5 
21/03/19   3:55    9.1    9.1    9.1    87    7.0   6.0    SW   0.50   8.0    SW    7.6    9.1    7.7  1032.4  0.00  0.00   0.032   0.000   20.6    50    9.8   19.8   9.27  .0756    117    1    100.0    5 
21/03/19   4:00    9.1    9.1    9.1    87    7.0   6.0    SW   0.50   8.0    SW    7.6    9.1    7.7  1032.5  0.00  0.00   0.032   0.000   20.6    50    9.8   19.8   9.27  .0756    115    1    100.0    5 
21/03/19   4:05    9.1    9.1    9.1    87    7.0   6.0    SW   0.50   7.0    SW    7.6    9.1    7.7  1032.5  0.00  0.00   0.032   0.000   20.4    51   10.0   19.7   9.47  .0756    116    1    100.0    5 
21/03/19   4:10    9.1    9.1    9.1    87    7.0   5.0    SW   0.42   7.0    SW    7.9    9.1    7.9  1032.5  0.00  0.00   0.032   0.000   20.4    51    9.9   19.7   9.48  .0756    117    1    100.0    5 
21/03/19   4:15    9.1    9.1    9.1    87    7.0   5.0    SW   0.42   7.0    SW    7.9    9.1    7.9  1032.6  0.00  0.00   0.032   0.000   20.4    51    9.9   19.7   9.48  .0756    116    1    100.0    5 
21/03/19   4:20    9.1    9.1    9.1    87    7.0   5.0    SW   0.42   6.0    SW    7.9    9.1    7.9  1032.5  0.00  0.00   0.032   0.000   20.4    51   10.0   19.7   9.47  .0756    117    1    100.0    5 
21/03/19   4:25    9.1    9.1    9.1    87    7.0   5.0    SW   0.42   6.0    SW    7.9    9.1    7.9  1032.5  0.00  0.00   0.032   0.000   20.4    51   10.0   19.7   9.47  .0756    118    1    100.0    5 
21/03/19   4:30    9.1    9.1    9.1    87    7.0   4.0    SW   0.33   7.0    SW    8.3    9.1    8.3  1032.5  0.00  0.00   0.032   0.000   20.5    51   10.0   19.8   9.47  .0756    117    1    100.0    5 
21/03/19   4:35    9.1    9.1    9.1    87    7.0   5.0    SW   0.42   7.0    SW    7.9    9.1    7.9  1032.5  0.00  0.00   0.032   0.000   20.5    51   10.0   19.8   9.47  .0756    116    1    100.0    5 
21/03/19   4:40    9.1    9.1    9.0    87    7.0   4.0    SW   0.33   7.0    SW    8.3    9.1    8.3  1032.6  0.00  0.00   0.032   0.000   20.5    51   10.0   19.8   9.47  .0756    117    1    100.0    5 
21/03/19   4:45    9.1    9.1    9.1    87    7.0   5.0    SW   0.42   6.0    SW    7.9    9.1    7.9  1032.6  0.00  0.00   0.032   0.000   20.4    51   10.0   19.7   9.47  .0756    117    1    100.0    5 
21/03/19   4:50    9.1    9.1    9.0    87    7.0   4.0    SW   0.33   6.0    SW    8.3    9.1    8.3  1032.7  0.00  0.00   0.032   0.000   20.4    51    9.9   19.7   9.48  .0756    117    1    100.0    5 
21/03/19   4:55    9.1    9.1    9.0    87    7.0   5.0    SW   0.42   6.0    SW    7.9    9.1    7.9  1032.6  0.00  0.00   0.032   0.000   20.3    51    9.9   19.6   9.48  .0757    117    1    100.0    5 
21/03/19   5:00    9.1    9.1    9.0    87    7.0   5.0    SW   0.42   6.0    SW    7.9    9.1    7.9  1032.6  0.00  0.00   0.032   0.000   20.2    52   10.0   19.6   9.68  .0757    117    1    100.0    5 
21/03/19   5:05    9.0    9.1    9.0    87    7.0   5.0    SW   0.42   7.0    SW    7.8    9.1    7.9  1032.6  0.00  0.00   0.032   0.000   20.3    55   10.9   19.8  10.18  .0756    117    1    100.0    5 
21/03/19   5:10    9.0    9.0    9.0    87    7.0   4.0    SW   0.33   6.0    SW    8.2    9.1    8.3  1032.5  0.00  0.00   0.032   0.000   20.2    53   10.3   19.6   9.88  .0757    117    1    100.0    5 
21/03/19   5:15    9.0    9.0    9.0    87    7.0   4.0    SW   0.33   6.0    SW    8.2    9.1    8.3  1032.6  0.00  0.00   0.032   0.000   20.3    53   10.4   19.7   9.88  .0756    116    1    100.0    5 
21/03/19   5:20    9.0    9.0    9.0    87    7.0   5.0    SW   0.42   7.0    SW    7.8    9.1    7.9  1032.7  0.00  0.00   0.032   0.000   20.3    52   10.1   19.6   9.68  .0757    117    1    100.0    5 
21/03/19   5:25    9.0    9.0    9.0    87    7.0   5.0    SW   0.42   7.0    SW    7.8    9.1    7.9  1032.7  0.00  0.00   0.032   0.000   20.3    52   10.1   19.6   9.68  .0757    117    1    100.0    5 
21/03/19   5:30    9.1    9.1    9.0    87    7.0   5.0    SW   0.42   7.0    SW    7.9    9.1    7.9  1032.7  0.00  0.00   0.032   0.000   20.3    52   10.1   19.7   9.68  .0756    118    1    100.0    5 
21/03/19   5:35    9.1    9.1    9.0    87    7.0   6.0    SW   0.50   9.0    SW    7.6    9.1    7.7  1032.8  0.00  0.00   0.032   0.000   20.4    51    9.9   19.7   9.48  .0757    116    1    100.0    5 
21/03/19   5:40    9.1    9.1    9.1    87    7.0   6.0    SW   0.50   8.0    SW    7.6    9.1    7.7  1032.7  0.00  0.00   0.032   0.000   20.4    51    9.9   19.7   9.48  .0756    116    1    100.0    5 
21/03/19   5:45    9.1    9.1    9.1    87    7.0   6.0    SW   0.50   8.0    SW    7.6    9.1    7.7  1032.7  0.00  0.00   0.032   0.000   20.3    51    9.9   19.6   9.48  .0757    117    1    100.0    5 
21/03/19   5:50    9.1    9.1    9.1    87    7.0   5.0    SW   0.42   7.0    SW    7.9    9.1    7.9  1032.7  0.00  0.00   0.032   0.000   20.3    51    9.9   19.6   9.48  .0757    117    1    100.0    5 
21/03/19   5:55    9.1    9.1    9.1    87    7.0   6.0    SW   0.50   8.0    SW    7.6    9.1    7.7  1032.8  0.00  0.00   0.032   0.000   20.3    51    9.9   19.6   9.48  .0757    117    1    100.0    5 
21/03/19   6:00    9.1    9.1    9.1    87    7.0   5.0    SW   0.42   7.0    SW    7.9    9.1    7.9  1032.8  0.00  0.00   0.032   0.000   20.3    51    9.8   19.6   9.48  .0757    116    1    100.0    5 
21/03/19   6:05    9.1    9.1    9.1    87    7.0   5.0    SW   0.42   6.0    SW    7.9    9.1    7.9  1032.9  0.00  0.00   0.032   0.000   20.2    51    9.8   19.6   9.48  .0757    117    1    100.0    5 
21/03/19   6:10    9.0    9.1    9.0    87    7.0   5.0    SW   0.42   7.0    SW    7.8    9.1    7.9  1032.9  0.00  0.00   0.032   0.000   20.2    51    9.8   19.6   9.48  .0757    117    1    100.0    5 
21/03/19   6:15    9.0    9.1    9.0    87    7.0   5.0    SW   0.42   7.0    SW    7.8    9.1    7.9  1032.9  0.00  0.00   0.032   0.000   20.2    51    9.8   19.6   9.48  .0757    117    1    100.0    5 
21/03/19   6:20    9.1    9.1    9.0    87    7.0   4.0    SW   0.33   7.0    SW    8.3    9.1    8.3  1032.9  0.00  0.00   0.032   0.000   20.3    51    9.8   19.6   9.48  .0757    116    1    100.0    5 
21/03/19   6:25    9.1    9.1    9.0    87    7.0   3.0    SW   0.25   5.0    SW    8.7    9.1    8.8  1033.0  0.00  0.00   0.032   0.000   20.4    51    9.9   19.7   9.48  .0757    116    1    100.0    5 
21/03/19   6:30    9.1    9.1    9.1    87    7.0   3.0   WSW   0.25   6.0    SW    8.7    9.1    8.8  1033.0  0.00  0.00   0.032   0.000   20.5    51   10.0   19.8   9.47  .0756    115    1    100.0    5 
21/03/19   6:35    9.1    9.1    9.1    87    7.0   3.0   WSW   0.25   5.0   WSW    8.7    9.1    8.8  1033.0  0.00  0.00   0.032   0.000   20.7    50    9.9   19.8   9.27  .0756    117    1    100.0    5 
21/03/19   6:40    9.1    9.1    9.1    87    7.1   2.0   WSW   0.17   5.0   WSW    9.1    9.2    9.2  1033.0  0.00  0.00   0.032   0.000   20.8    50   10.0   19.9   9.26  .0756    116    1    100.0    5 
21/03/19   6:45    9.1    9.1    9.1    87    7.1   3.0   WSW   0.25   6.0   WSW    8.8    9.2    8.8  1033.0  0.00  0.00   0.032   0.000   20.9    50   10.1   20.1   9.26  .0755    117    1    100.0    5 
21/03/19   6:50    9.1    9.1    9.1    87    7.1   3.0   WSW   0.25   5.0   WSW    8.8    9.2    8.8  1033.1  0.00  0.00   0.032   0.000   21.0    50   10.2   20.1   9.25  .0755    117    1    100.0    5 
21/03/19   6:55    9.2    9.2    9.1    87    7.1   3.0   WSW   0.25   4.0   WSW    8.9    9.2    8.9  1033.0  0.00  0.00   0.032   0.000   21.1    49   10.0   20.1   9.05  .0755    117    1    100.0    5 
21/03/19   7:00    9.2    9.2    9.2    87    7.1   3.0   WSW   0.25   5.0   WSW    8.9    9.2    8.9  1033.2  0.00  0.00   0.032   0.000   21.3    49   10.1   20.3   9.05  .0754    117    1    100.0    5 
21/03/19   7:05    9.2    9.2    9.2    87    7.2   4.0   WSW   0.33   6.0   WSW    8.5    9.3    8.6  1033.1  0.00  0.00   0.032   0.000   21.4    49   10.2   20.5   9.05  .0754    117    1    100.0    5 
21/03/19   7:10    9.2    9.2    9.2    87    7.2   3.0   WSW   0.25   6.0   WSW    8.9    9.3    9.0  1033.1  0.00  0.00   0.032   0.000   21.5    49   10.3   20.6   9.05  .0754    115    1    100.0    5 
21/03/19   7:15    9.3    9.3    9.2    87    7.2   4.0   WSW   0.33   5.0   WSW    8.6    9.4    8.7  1033.1  0.00  0.00   0.031   0.000   21.6    49   10.4   20.7   9.05  .0753    117    1    100.0    5 
21/03/19   7:20    9.2    9.3    9.2    87    7.2   4.0   WSW   0.33   5.0   WSW    8.5    9.3    8.6  1033.2  0.00  0.00   0.032   0.000   21.6    49   10.4   20.7   9.05  .0754    117    1    100.0    5 
21/03/19   7:25    9.2    9.2    9.2    87    7.2   4.0   WSW   0.33   6.0   WSW    8.5    9.3    8.6  1033.2  0.00  0.00   0.032   0.000   21.5    49   10.3   20.6   9.05  .0754    116    1    100.0    5 
21/03/19   7:30    9.3    9.3    9.2    87    7.2   4.0   WSW   0.33   6.0   WSW    8.6    9.4    8.7  1033.2  0.00  0.00   0.031   0.000   21.4    49   10.3   20.6   9.05  .0754    117    1    100.0    5 
21/03/19   7:35    9.3    9.3    9.2    87    7.2   3.0   WSW   0.25   5.0   WSW    9.0    9.4    9.1  1033.2  0.00  0.00   0.031   0.000   21.4    49   10.2   20.5   9.05  .0754    117    1    100.0    5 
21/03/19   7:40    9.3    9.3    9.3    87    7.2   4.0   WSW   0.33   5.0   WSW    8.6    9.4    8.7  1033.2  0.00  0.00   0.031   0.000   21.4    49   10.2   20.5   9.05  .0754    118    1    100.0    5 
21/03/19   7:45    9.3    9.3    9.3    87    7.2   4.0   WSW   0.33   5.0   WSW    8.6    9.4    8.7  1033.3  0.00  0.00   0.031   0.000   21.4    49   10.2   20.5   9.05  .0754    117    1    100.0    5 
21/03/19   7:50    9.3    9.3    9.3    87    7.3   3.0   WSW   0.25   6.0   WSW    9.1    9.4    9.2  1033.3  0.00  0.00   0.031   0.000   21.4    49   10.2   20.5   9.05  .0754    117    1    100.0    5 
21/03/19   7:55    9.3    9.3    9.3    87    7.3   3.0   WSW   0.25   5.0   WSW    9.1    9.4    9.2  1033.4  0.00  0.00   0.031   0.000   21.4    49   10.3   20.6   9.05  .0754    116    1    100.0    5 
21/03/19   8:00    9.4    9.4    9.3    87    7.3   3.0   WSW   0.25   5.0   WSW    9.1    9.5    9.2  1033.4  0.00  0.00   0.031   0.000   21.5    49   10.3   20.6   9.05  .0754    117    1    100.0    5 
21/03/19   8:05    9.4    9.4    9.3    87    7.3   4.0   WSW   0.33   6.0   WSW    8.7    9.5    8.8  1033.4  0.00  0.00   0.031   0.000   21.5    49   10.3   20.6   9.05  .0754    116    1    100.0    5 
21/03/19   8:10    9.4    9.4    9.4    87    7.4   4.0     W   0.33   6.0     W    8.7    9.6    8.8  1033.5  0.00  0.00   0.031   0.000   21.5    49   10.3   20.6   9.05  .0754    117    1    100.0    5 
21/03/19   8:15    9.4    9.4    9.4    87    7.3   5.0     W   0.42   6.0     W    8.3    9.5    8.4  1033.6  0.00  0.00   0.031   0.000   21.5    49   10.3   20.6   9.05  .0754    117    1    100.0    5 
21/03/19   8:20    9.4    9.4    9.3    87    7.4   4.0     W   0.33   6.0     W    8.7    9.6    8.8  1033.5  0.00  0.00   0.031   0.000   21.5    49   10.3   20.6   9.05  .0754    117    1    100.0    5 
21/03/19   8:25    9.4    9.4    9.4    87    7.3   4.0     S   0.33   5.0     W    8.7    9.5    8.8  1033.6  0.00  0.00   0.031   0.000   21.5    49   10.3   20.6   9.05  .0754    117    1    100.0    5 
21/03/19   8:30    9.4    9.4    9.4    87    7.4   4.0     S   0.33   5.0     S    8.7    9.6    8.8  1033.7  0.00  0.00   0.031   0.000   21.5    49   10.3   20.6   9.05  .0754    116    1    100.0    5 
21/03/19   8:35    9.5    9.5    9.4    87    7.4   3.0     S   0.25   4.0     S    9.2    9.6    9.3  1033.7  0.00  0.00   0.031   0.000   21.5    49   10.3   20.6   9.05  .0754    116    1    100.0    5 
21/03/19   8:40    9.5    9.5    9.4    87    7.4   1.0     S   0.08   3.0     S    9.5    9.6    9.6  1033.7  0.00  0.00   0.031   0.000   21.6    49   10.4   20.8   9.05  .0754    117    1    100.0    5 
21/03/19   8:45    9.6    9.6    9.5    87    7.6   0.0     S   0.00   3.0     S    9.6    9.7    9.7  1033.7  0.00  0.00   0.030   0.000   21.8    49   10.6   21.0   9.05  .0753    117    1    100.0    5 
21/03/19   8:50    9.6    9.6    9.6    87    7.6   1.0     S   0.08   4.0     S    9.6    9.7    9.7  1033.6  0.00  0.00   0.030   0.000   21.9    49   10.7   21.2   9.05  .0753    117    1    100.0    5 
21/03/19   8:55    9.6    9.6    9.6    87    7.5   1.0     S   0.08   3.0     S    9.6    9.7    9.7  1033.7  0.00  0.00   0.030   0.000   22.0    49   10.8   21.3   9.05  .0753    116    1    100.0    5 
21/03/19   9:00    9.6    9.6    9.6    87    7.5   1.0     S   0.08   4.0     S    9.6    9.7    9.7  1033.6  0.00  0.00   0.030   0.000   22.1    49   10.8   21.4   9.05  .0752    117    1    100.0    5 
21/03/19   9:05    9.6    9.6    9.6    87    7.5   1.0     S   0.08   4.0     S    9.6    9.7    9.7  1033.7  0.00  0.00   0.030   0.000   22.1    48   10.6   21.4   8.89  .0752    117    1    100.0    5 
21/03/19   9:10    9.6    9.6    9.6    87    7.6   0.0     S   0.00   3.0     S    9.6    9.7    9.7  1033.7  0.00  0.00   0.030   0.000   22.2    48   10.6   21.6   8.89  .0752    117    1    100.0    5 
21/03/19   9:15    9.6    9.6    9.6    87    7.6   1.0     S   0.08   3.0     S    9.6    9.7    9.7  1033.7  0.00  0.00   0.030   0.000   22.2    48   10.7   21.6   8.89  .0752    117    1    100.0    5 
21/03/19   9:20    9.6    9.6    9.6    87    7.5   1.0   SSW   0.08   5.0   SSW    9.6    9.7    9.7  1033.7  0.00  0.00   0.030   0.000   22.3    48   10.7   21.7   8.89  .0752    117    1    100.0    5 
21/03/19   9:25    9.7    9.7    9.6    87    7.6   0.0   NNW   0.00   2.0   NNW    9.7    9.8    9.8  1033.7  0.00  0.00   0.030   0.000   22.3    48   10.8   21.8   8.89  .0752    117    1    100.0    5 
21/03/19   9:30    9.7    9.7    9.7    87    7.7   0.0   NNW   0.00   3.0   NNW    9.7    9.8    9.8  1033.7  0.00  0.00   0.030   0.000   22.4    48   10.9   21.9   8.90  .0751    116    1    100.0    5 
21/03/19   9:35    9.7    9.8    9.7    86    7.4   1.0   NNW   0.08   2.0   NNW    9.7    9.7    9.7  1033.7  0.00  0.00   0.030   0.000   22.5    48   10.9   22.0   8.90  .0751    117    1    100.0    5 
21/03/19   9:40    9.8    9.8    9.7    87    7.7   0.0   NNW   0.00   2.0   NNW    9.8    9.9    9.9  1033.7  0.00  0.00   0.030   0.000   22.6    48   11.0   22.1   8.90  .0751    116    1    100.0    5 
21/03/19   9:45    9.8    9.8    9.8    86    7.6   1.0   NNW   0.08   4.0   NNW    9.8    9.9    9.9  1033.7  0.00  0.00   0.030   0.000   22.7    48   11.1   22.3   8.91  .0751    117    1    100.0    5 
21/03/19   9:50    9.9    9.9    9.8    86    7.7   0.0   NNW   0.00   4.0   NNW    9.9   10.0   10.0  1033.7  0.00  0.00   0.029   0.000   22.7    47   10.8   22.3   8.75  .0751    116    1    100.0    5 
21/03/19   9:55    9.9    9.9    9.9    86    7.7   1.0    NW   0.08   5.0   NNW    9.9   10.0   10.0  1033.7  0.00  0.00   0.029   0.000   22.8    47   10.9   22.4   8.75  .0751    116    1    100.0    5 
21/03/19  10:00    9.9    9.9    9.9    86    7.7   2.0    NW   0.17   5.0    NW    9.9    9.9    9.9  1033.7  0.00  0.00   0.029   0.000   22.8    47   10.9   22.4   8.75  .0751    117    1    100.0    5 
21/03/19  10:05    9.8    9.9    9.8    86    7.6   4.0   WNW   0.33   5.0    NW    9.2    9.9    9.2  1033.7  0.00  0.00   0.030   0.000   22.7    47   10.8   22.3   8.75  .0751    117    1    100.0    5 
21/03/19  10:10    9.8    9.8    9.8    86    7.5   4.0   WNW   0.33   6.0   WNW    9.1    9.8    9.2  1033.7  0.00  0.00   0.030   0.000   22.6    47   10.7   22.1   8.75  .0751    117    1    100.0    5 
21/03/19  10:15    9.8    9.8    9.7    86    7.5   3.0   WNW   0.25   5.0   WNW    9.6    9.8    9.6  1033.7  0.00  0.00   0.030   0.000   22.4    47   10.5   21.8   8.75  .0752    117    1    100.0    5 
21/03/19  10:20    9.8    9.8    9.8    86    7.5   3.0   WNW   0.25   4.0   WNW    9.6    9.8    9.6  1033.6  0.00  0.00   0.030   0.000   22.3    48   10.8   21.8   8.89  .0752    116    1    100.0    5 
21/03/19  10:25    9.8    9.8    9.8    86    7.6   2.0   WNW   0.17   3.0   WNW    9.8    9.9    9.9  1033.6  0.00  0.00   0.030   0.000   22.3    48   10.8   21.8   8.89  .0752    117    1    100.0    5 
21/03/19  10:30    9.8    9.8    9.8    86    7.5   2.0   WNW   0.17   4.0   WNW    9.8    9.8    9.8  1033.6  0.00  0.00   0.030   0.000   22.4    48   10.8   21.8   8.90  .0751    117    1    100.0    5 
21/03/19  10:35    9.8    9.8    9.8    86    7.5   2.0   WNW   0.17   4.0   WNW    9.8    9.8    9.8  1033.7  0.00  0.00   0.030   0.000   22.3    48   10.8   21.8   8.89  .0752    117    1    100.0    5 
21/03/19  10:40    9.7    9.8    9.7    86    7.5   2.0   WNW   0.17   5.0   WNW    9.7    9.8    9.8  1033.7  0.00  0.00   0.030   0.000   22.3    48   10.8   21.8   8.89  .0752    117    1    100.0    5 
21/03/19  10:45    9.7    9.7    9.7    86    7.5   3.0   WNW   0.25   6.0   WNW    9.5    9.8    9.6  1033.8  0.00  0.00   0.030   0.000   22.3    48   10.7   21.7   8.89  .0752    117    1    100.0    5 
21/03/19  10:50    9.7    9.7    9.7    86    7.4   4.0     W   0.33   6.0     W    9.0    9.7    9.1  1033.7  0.00  0.00   0.030   0.000   22.2    48   10.6   21.6   8.89  .0752    118    1    100.0    5 
21/03/19  10:55    9.7    9.7    9.7    86    7.4   3.0     W   0.25   4.0     W    9.4    9.7    9.5  1033.7  0.00  0.00   0.030   0.000   22.1    48   10.5   21.3   8.88  .0753    116    1    100.0    5 
21/03/19  11:00    9.7    9.7    9.7    86    7.4   2.0     W   0.17   4.0     W    9.7    9.7    9.7  1033.7  0.00  0.00   0.030   0.000   22.1    48   10.5   21.3   8.88  .0753    116    1    100.0    5 
21/03/19  11:05    9.7    9.7    9.7    86    7.4   2.0     W   0.17   4.0     W    9.7    9.7    9.7  1033.7  0.00  0.00   0.030   0.000   22.1    48   10.6   21.4   8.89  .0752    116    1    100.0    5 
21/03/19  11:10    9.7    9.7    9.7    86    7.5   2.0     W   0.17   4.0     W    9.7    9.8    9.8  1033.7  0.00  0.00   0.030   0.000   22.2    48   10.6   21.6   8.89  .0752    117    1    100.0    5 
21/03/19  11:15    9.7    9.7    9.7    86    7.5   1.0     W   0.08   4.0     W    9.7    9.8    9.8  1033.7  0.00  0.00   0.030   0.000   22.2    48   10.7   21.6   8.89  .0752    117    1    100.0    5 
21/03/19  11:20    9.7    9.7    9.7    86    7.5   2.0     W   0.17   4.0     W    9.7    9.8    9.8  1033.7  0.00  0.00   0.030   0.000   22.2    48   10.7   21.6   8.89  .0752    117    1    100.0    5 
21/03/19  11:25    9.8    9.8    9.7    87    7.7   4.0     W   0.33   5.0     W    9.1    9.9    9.2  1033.6  0.00  0.00   0.030   0.000   22.2    48   10.6   21.6   8.89  .0752    117    1    100.0    5 
21/03/19  11:30    9.8    9.8    9.8    87    7.7   3.0     W   0.25   4.0     W    9.6    9.9    9.7  1033.6  0.00  0.00   0.030   0.000   22.2    48   10.7   21.6   8.89  .0752    116    1    100.0    5 
21/03/19  11:35    9.7    9.8    9.7    87    7.7   3.0     W   0.25   5.0     W    9.5    9.8    9.6  1033.6  0.00  0.00   0.030   0.000   22.3    48   10.7   21.7   8.89  .0752    117    1    100.0    5 
21/03/19  11:40    9.7    9.8    9.7    86    7.4   4.0     W   0.33   6.0     W    9.0    9.7    9.1  1033.6  0.00  0.00   0.030   0.000   22.3    48   10.7   21.7   8.89  .0752    117    1    100.0    5 
21/03/19  11:45    9.7    9.7    9.7    86    7.4   4.0     W   0.33   7.0     W    9.0    9.7    9.1  1033.6  0.00  0.00   0.030   0.000   22.1    48   10.6   21.4   8.89  .0752    117    1    100.0    5 
21/03/19  11:50    9.8    9.8    9.7    87    7.7   3.0     W   0.25   5.0     W    9.6    9.9    9.7  1033.6  0.00  0.00   0.030   0.000   22.0    48   10.5   21.3   8.88  .0753    116    1    100.0    5 
21/03/19  11:55    9.9    9.9    9.8    87    7.8   3.0     W   0.25   5.0     W    9.7   10.0    9.8  1033.4  0.00  0.00   0.029   0.000   22.1    48   10.5   21.3   8.88  .0752    117    1    100.0    5 
21/03/19  12:00    9.9    9.9    9.9    86    7.7   2.0     W   0.17   4.0     W    9.9   10.0   10.0  1033.5  0.00  0.00   0.029   0.000   22.2    48   10.6   21.6   8.89  .0752    117    1    100.0    5 
21/03/19  12:05    9.9    9.9    9.9    87    7.8   2.0     W   0.17   4.0     W    9.9   10.0   10.0  1033.4  0.00  0.00   0.029   0.000   22.3    48   10.7   21.7   8.89  .0752    117    1    100.0    5 
21/03/19  12:10    9.8    9.9    9.8    87    7.8   3.0     W   0.25   5.0     W    9.6    9.9    9.7  1033.4  0.00  0.00   0.030   0.000   22.3    48   10.7   21.7   8.89  .0752    117    1    100.0    5 
21/03/19  12:15    9.9    9.9    9.8    87    7.8   4.0     W   0.33   6.0     W    9.3   10.0    9.4  1033.3  0.00  0.00   0.029   0.000   22.2    48   10.7   21.6   8.89  .0752    117    1    100.0    5 
21/03/19  12:20    9.9    9.9    9.8    87    7.8   3.0     W   0.25   5.0     W    9.7   10.0    9.8  1033.3  0.00  0.00   0.029   0.000   22.1    48   10.6   21.4   8.89  .0752    116    1    100.0    5 
21/03/19  12:25    9.8    9.9    9.8    87    7.8   3.0     W   0.25   5.0     W    9.6    9.9    9.7  1033.2  0.00  0.00   0.030   0.000   22.1    48   10.6   21.4   8.89  .0752    117    1    100.0    5 
21/03/19  12:30   10.0   10.0    9.8    86    7.8   2.0     W   0.17   4.0     W   10.0   10.1   10.1  1033.2  0.00  0.00   0.029   0.000   22.1    48   10.6   21.4   8.89  .0752    117    1    100.0    5 
21/03/19  12:35   10.0   10.1   10.0    86    7.8   2.0     W   0.17   3.0     W   10.0   10.1   10.1  1033.2  0.00  0.00   0.029   0.000   22.2    48   10.7   21.6   8.89  .0752    117    1    100.0    5 
21/03/19  12:40   10.1   10.1   10.0    86    7.8   1.0     W   0.08   3.0     W   10.1   10.1   10.1  1033.2  0.00  0.00   0.029   0.000   22.4    48   10.8   21.8   8.90  .0751    117    1    100.0    5 
21/03/19  12:45   10.2   10.2   10.1    86    7.9   1.0     W   0.08   4.0     W   10.2   10.2   10.2  1033.2  0.00  0.00   0.028   0.000   22.6    48   11.0   22.2   8.90  .0750    117    1    100.0    5 
21/03/19  12:50   10.2   10.2   10.2    87    8.1   2.0     W   0.17   5.0     W   10.2   10.3   10.3  1033.1  0.00  0.00   0.028   0.000   22.8    47   10.9   22.4   8.75  .0750    117    1    100.0    5 
21/03/19  12:55   10.1   10.2   10.1    86    7.9   2.0     W   0.17   4.0     W   10.1   10.2   10.2  1033.1  0.00  0.00   0.029   0.000   22.9    47   11.0   22.5   8.75  .0750    118    1    100.0    5 
21/03/19  13:00   10.0   10.1   10.0    86    7.8   3.0     W   0.25   5.0     W    9.8   10.1    9.9  1033.0  0.00  0.00   0.029   0.000   22.9    47   11.0   22.6   8.75  .0749    117    1    100.0    5 
21/03/19  13:05   10.0   10.1   10.0    86    7.8   3.0     W   0.25   6.0     W    9.8   10.1    9.9  1033.0  0.00  0.00   0.029   0.000   23.0    47   11.1   22.7   8.75  .0749    116    1    100.0    5 
21/03/19  13:10   10.0   10.1   10.0    86    7.8   4.0     W   0.33   6.0     W    9.4   10.1    9.4  1032.9  0.00  0.00   0.029   0.000   23.0    47   11.1   22.7   8.75  .0749    117    1    100.0    5 
21/03/19  13:15    9.9   10.0    9.9    86    7.7   5.0     W   0.42   7.0     W    8.9   10.0    9.0  1032.9  0.00  0.00   0.029   0.000   23.0    46   10.8   22.6   8.58  .0749    117    1    100.0    5 
21/03/19  13:20    9.9   10.0    9.9    86    7.7   4.0     W   0.33   6.0     W    9.3   10.0    9.4  1032.8  0.00  0.00   0.029   0.000   23.0    47   11.1   22.7   8.75  .0749    115    1    100.0    5 
21/03/19  13:25    9.9    9.9    9.9    86    7.7   3.0     W   0.25   5.0     W    9.7    9.9    9.8  1032.8  0.00  0.00   0.029   0.000   23.0    47   11.1   22.7   8.75  .0749    116    1    100.0    5 
21/03/19  13:30    9.9    9.9    9.9    86    7.7   3.0     W   0.25   5.0     W    9.8   10.0    9.8  1032.7  0.00  0.00   0.029   0.000   23.1    46   10.8   22.7   8.58  .0749    116    1    100.0    5 
21/03/19  13:35    9.9    9.9    9.9    86    7.7   3.0     W   0.25   5.0     W    9.8   10.0    9.8  1032.7  0.00  0.00   0.029   0.000   23.1    46   10.8   22.7   8.58  .0749    117    1    100.0    5 
21/03/19  13:40    9.9   10.0    9.9    86    7.7   3.0     W   0.25   5.0     W    9.8   10.0    9.8  1032.6  0.00  0.00   0.029   0.000   23.1    46   10.8   22.7   8.58  .0749    117    1    100.0    5 
21/03/19  13:45    9.9    9.9    9.9    86    7.7   3.0     W   0.25   5.0     W    9.8   10.0    9.8  1032.5  0.00  0.00   0.029   0.000   23.1    46   10.9   22.7   8.58  .0749    117    1    100.0    5 
21/03/19  13:50    9.9   10.0    9.9    86    7.7   3.0     W   0.25   5.0     W    9.7    9.9    9.8  1032.5  0.00  0.00   0.029   0.000   23.1    46   10.9   22.7   8.58  .0749    117    1    100.0    5 
21/03/19  13:55    9.9    9.9    9.8    86    7.7   4.0     W   0.33   6.0     W    9.3    9.9    9.3  1032.4  0.00  0.00   0.029   0.000   23.0    46   10.8   22.6   8.58  .0749    116    1    100.0    5 
21/03/19  14:00    9.9    9.9    9.9    86    7.7   4.0     W   0.33   7.0     W    9.3    9.9    9.3  1032.3  0.00  0.00   0.029   0.000   23.0    46   10.8   22.6   8.58  .0749    116    1    100.0    5 
21/03/19  14:05    9.9    9.9    9.8    86    7.7   4.0     W   0.33   5.0     W    9.3    9.9    9.3  1032.3  0.00  0.00   0.029   0.000   22.9    46   10.7   22.6   8.58  .0749    117    1    100.0    5 
21/03/19  14:10    9.9    9.9    9.9    86    7.7   3.0     W   0.25   5.0     W    9.7    9.9    9.8  1032.2  0.00  0.00   0.029   0.000   23.0    46   10.8   22.6   8.58  .0749    116    1    100.0    5 
21/03/19  14:15    9.9    9.9    9.9    86    7.7   4.0     W   0.33   6.0     W    9.3    9.9    9.3  1032.2  0.00  0.00   0.029   0.000   23.0    46   10.8   22.6   8.58  .0749    116    1    100.0    5 
21/03/19  14:20    9.8    9.9    9.8    86    7.5   4.0     W   0.33   6.0     W    9.1    9.8    9.2  1032.1  0.00  0.00   0.030   0.000   23.1    46   10.8   22.7   8.58  .0749    116    1    100.0    5 
21/03/19  14:25    9.7    9.8    9.7    86    7.5   3.0     W   0.25   5.0     W    9.5    9.8    9.6  1032.1  0.00  0.00   0.030   0.000   23.0    46   10.8   22.6   8.58  .0749    117    1    100.0    5 
21/03/19  14:30    9.7    9.7    9.6    86    7.4   3.0     W   0.25   5.0     W    9.4    9.7    9.5  1032.1  0.00  0.00   0.030   0.000   23.0    46   10.8   22.6   8.58  .0749    117    1    100.0    5 
21/03/19  14:35    9.7    9.7    9.6    86    7.5   2.0     W   0.17   4.0     W    9.7    9.8    9.8  1032.0  0.00  0.00   0.030   0.000   23.0    46   10.8   22.6   8.58  .0749    116    1    100.0    5 
21/03/19  14:40    9.7    9.7    9.7    86    7.4   3.0     W   0.25   4.0     W    9.4    9.7    9.5  1032.0  0.00  0.00   0.030   0.000   23.1    46   10.9   22.7   8.58  .0748    117    1    100.0    5 
21/03/19  14:45    9.6    9.7    9.6    86    7.4   3.0     W   0.25   5.0     W    9.4    9.7    9.4  1031.9  0.00  0.00   0.030   0.000   23.2    46   10.9   22.8   8.58  .0748    116    1    100.0    5 
21/03/19  14:50    9.7    9.7    9.7    86    7.4   3.0     W   0.25   5.0     W    9.4    9.7    9.5  1031.9  0.00  0.00   0.030   0.000   23.1    46   10.9   22.7   8.58  .0748    117    1    100.0    5 
21/03/19  14:55    9.7    9.7    9.6    86    7.4   3.0     W   0.25   6.0     W    9.4    9.7    9.5  1031.9  0.00  0.00   0.030   0.000   22.9    46   10.7   22.6   8.58  .0749    117    1    100.0    5 
21/03/19  15:00    9.7    9.7    9.6    86    7.4   4.0     W   0.33   6.0     W    9.0    9.7    9.1  1031.9  0.00  0.00   0.030   0.000   22.8    46   10.6   22.4   8.59  .0749    117    1    100.0    5 
21/03/19  15:05    9.7    9.7    9.7    86    7.4   4.0     W   0.33   7.0     W    9.0    9.7    9.1  1031.9  0.00  0.00   0.030   0.000   22.7    46   10.5   22.2   8.59  .0750    117    1    100.0    5 
21/03/19  15:10    9.7    9.7    9.6    86    7.4   4.0     W   0.33   6.0     W    9.0    9.7    9.1  1031.8  0.00  0.00   0.030   0.000   22.6    46   10.3   22.0   8.60  .0750    116    1    100.0    5 
21/03/19  15:15    9.7    9.7    9.6    86    7.4   5.0     W   0.42   7.0     W    8.6    9.7    8.7  1031.8  0.00  0.00   0.030   0.000   22.4    47   10.6   21.9   8.75  .0750    117    1    100.0    5 
21/03/19  15:20    9.6    9.7    9.6    86    7.4   3.0     W   0.25   6.0     W    9.4    9.7    9.4  1031.8  0.00  0.00   0.030   0.000   22.4    47   10.5   21.8   8.75  .0750    117    1    100.0    5 
21/03/19  15:25    9.7    9.7    9.6    86    7.4   2.0     W   0.17   4.0     W    9.7    9.7    9.7  1031.9  0.00  0.00   0.030   0.000   22.4    47   10.6   21.9   8.75  .0750    117    1    100.0    5 
21/03/19  15:30    9.7    9.7    9.7    86    7.4   2.0     W   0.17   4.0     W    9.7    9.7    9.7  1031.8  0.00  0.00   0.030   0.000   22.6    47   10.7   22.1   8.75  .0750    117    1    100.0    5 
98264